Data for 08/12/2010

Time Sea-Level Adjusted Pressure Absolute Pressure Temperature Relative Humidity Dew Point Precipitation   
(mb) (inHg) (mb) (inHg) (C) (F) (%) (C) (F) (mm) (in)
00:01 1019 30.09 848 25.04 8.3 46.9 84 5.8 42.5 8.72 0.343
00:02 1019 30.09 848 25.04 8.1 46.6 86 5.8 42.5 8.61 0.339
00:03 1019 30.09 848 25.04 8.1 46.6 86 6 42.7 8.6 0.339
00:04 1019 30.09 848 25.04 8.2 46.8 85 5.9 42.6 8.58 0.338
00:05 1019 30.09 848 25.04 8.2 46.8 85 5.9 42.5 8.58 0.338
00:06 1019 30.09 848 25.04 8.2 46.7 84 5.7 42.3 8.58 0.338
00:07 1019 30.09 848 25.04 8.2 46.7 85 5.8 42.5 8.5 0.335
00:08 1019 30.09 848 25.04 8.2 46.7 85 5.9 42.6 8.55 0.337
00:09 1019 30.09 848 25.04 8.2 46.7 86 6 42.8 8.53 0.336
00:10 1019 30.09 848 25.04 8.3 46.9 85 6 42.8 8.63 0.34
00:11 1019 30.09 848 25.04 8.3 46.9 85 6 42.8 8.66 0.341
00:12 1019 30.09 848 25.04 8.3 46.9 85 5.9 42.6 8.59 0.338
00:13 1019 30.09 848 25.04 8.2 46.7 86 5.9 42.6 8.54 0.336
00:14 1019 30.09 848 25.04 8.1 46.5 86 5.9 42.6 8.45 0.333
00:15 1019 30.09 848 25.04 8 46.3 87 5.9 42.5 8.34 0.328
00:16 1019 30.09 848 25.04 7.9 46.2 87 5.8 42.5 8.28 0.326
00:17 1019 30.09 848 25.04 7.8 46.1 87 5.9 42.6 8.24 0.324
00:18 1019 30.09 848 25.04 7.8 46.1 87 5.9 42.6 8.19 0.322
00:19 1019 30.09 848 25.04 7.8 46.1 87 5.9 42.6 8.16 0.321
00:20 1019 30.09 848 25.04 7.9 46.1 88 6 42.8 8.19 0.322
00:21 1019 30.09 848 25.04 7.9 46.2 88 6 42.8 8.22 0.324
00:22 1019 30.09 848 25.04 7.9 46.3 88 6.1 42.9 8.24 0.324
00:23 1019 30.09 848 25.04 7.9 46.3 88 6 42.8 8.24 0.324
00:24 1019 30.09 848 25.04 8 46.3 87 6 42.8 8.26 0.325
00:25 1019 30.09 848 25.04 7.9 46.2 88 6 42.7 8.21 0.323
00:26 1019 30.09 848 25.04 7.9 46.1 88 6 42.8 8.2 0.323
00:27 1019 30.09 848 25.04 7.9 46.3 88 6 42.8 8.24 0.324
00:28 1019 30.09 848 25.04 8 46.3 88 6 42.9 8.24 0.324
00:29 1019 30.09 848 25.04 8 46.3 88 6.1 43 8.23 0.324
00:30 1019 30.09 848 25.04 7.9 46.3 89 6.2 43.1 8.28 0.326
00:31 1019 30.09 848 25.04 8 46.5 89 6.3 43.3 8.37 0.33
00:32 1019 30.09 848 25.04 8.1 46.6 88 6.3 43.4 8.44 0.332
00:33 1019 30.09 848 25.04 8.2 46.7 88 6.3 43.4 8.49 0.334
00:34 1019 30.09 848 25.04 8.2 46.7 88 6.4 43.4 8.5 0.335
00:35 1019 30.09 848 25.04 8.1 46.6 88 6.3 43.3 8.45 0.333
00:36 1019 30.09 848 25.04 8.1 46.5 89 6.3 43.3 8.41 0.331
00:37 1019 30.09 848 25.04 8.1 46.6 88 6.3 43.3 8.42 0.331
00:38 1019 30.09 848 25.04 8.2 46.7 88 6.3 43.4 8.46 0.333
00:39 1019 30.09 848 25.04 8.1 46.6 89 6.3 43.4 8.48 0.334
00:40 1019 30.09 848 25.04 8.2 46.7 89 6.4 43.6 8.51 0.335
00:41 1019 30.09 848 25.04 8.2 46.7 89 6.5 43.8 8.52 0.335
00:42 1019 30.09 848 25.04 8.2 46.8 89 6.5 43.8 8.58 0.338
00:43 1019 30.09 848 25.04 8.3 46.9 89 6.6 43.9 8.58 0.338
00:44 1019 30.09 848 25.04 8.4 47.1 89 6.7 44.1 8.69 0.342
00:45 1019 30.09 848 25.04 8.5 47.3 89 6.7 44.1 8.8 0.346
00:46 1019 30.09 848 25.04 8.7 47.6 88 6.8 44.2 8.95 0.352
00:47 1019 30.09 848 25.04 8.8 47.9 87 6.8 44.3 9.07 0.357
00:48 1019 30.09 848 25.04 8.9 48.1 86 6.8 44.2 9.22 0.363
00:49 1019 30.09 848 25.04 9.1 48.4 85 6.8 44.2 9.34 0.368
00:50 1019 30.09 848 25.04 9.2 48.6 85 6.8 44.2 9.48 0.373
00:51 1019 30.09 848 25.04 9.3 48.7 84 6.8 44.3 9.58 0.377
00:52 1019 30.09 848 25.04 9.3 48.8 85 6.9 44.4 9.6 0.378
00:53 1019 30.09 848 25.04 9.3 48.7 85 6.8 44.3 9.62 0.379
00:54 1019 30.09 848 25.04 9.3 48.7 85 6.8 44.3 9.65 0.38
00:55 1019 30.09 848 25.04 9.2 48.6 85 6.8 44.2 9.58 0.377
00:56 1019 30.09 848 25.04 9.1 48.4 85 6.7 44.1 9.46 0.372
00:57 1019 30.09 848 25.04 9 48.2 86 6.7 44.1 9.35 0.368
00:58 1019 30.09 848 25.04 8.8 47.9 86 6.7 44.1 9.26 0.365
00:59 1019 30.09 848 25.04 8.8 47.8 87 6.7 44.1 9.13 0.359
01:00 1019 30.09 848 25.04 8.7 47.7 87 6.6 43.9 9.04 0.356
01:01 1019 30.09 848 25.04 8.7 47.7 87 6.6 43.9 9.05 0.356
01:02 1019 30.09 848 25.04 8.8 47.8 86 6.6 43.9 9.08 0.357
01:03 1019 30.09 848 25.04 8.8 47.9 86 6.6 43.9 9.14 0.36
01:04 1019 30.09 848 25.04 8.8 47.9 86 6.6 43.9 9.16 0.361
01:05 1019 30.09 848 25.04 8.9 47.9 86 6.6 43.9 9.2 0.362
01:06 1019 30.09 848 25.04 8.8 47.9 86 6.6 43.8 9.11 0.359
01:07 1019 30.09 848 25.04 8.8 47.9 86 6.6 43.8 9.12 0.359
01:08 1019 30.09 848 25.04 8.8 47.8 86 6.5 43.8 9.06 0.357
01:09 1019 30.09 848 25.04 8.8 47.8 86 6.5 43.7 9 0.354
01:10 1019 30.09 848 25.04 8.7 47.6 86 6.5 43.7 8.99 0.354
01:11 1019 30.09 848 25.04 8.6 47.5 86 6.4 43.6 8.9 0.35
01:12 1019 30.09 848 25.04 8.5 47.3 86 6.4 43.4 8.82 0.347
01:13 1019 30.09 848 25.04 8.5 47.2 87 6.4 43.5 8.82 0.347
01:14 1019 30.09 848 25.04 8.5 47.2 87 6.4 43.5 8.76 0.345
01:15 1019 30.09 848 25.04 8.4 47.1 87 6.3 43.3 8.7 0.343
01:16 1019 30.09 848 25.04 8.3 47 87 6.3 43.3 8.66 0.341
01:17 1019 30.09 848 25.04 8.2 46.8 87 6.2 43.2 8.56 0.337
01:18 1019 30.09 848 25.04 8.2 46.8 87 6.2 43.2 8.52 0.335
01:19 1019 30.09 848 25.04 8.2 46.7 88 6.2 43.2 8.5 0.335
01:20 1019 30.09 848 25.04 8.1 46.6 87 6.1 43.1 8.45 0.333
01:21 1019 30.09 848 25.04 8.1 46.6 86 5.9 42.7 8.37 0.33
01:22 1019 30.09 848 25.04 7.9 46.2 86 5.7 42.3 8.18 0.322
01:23 1019 30.09 848 25.04 7.7 45.8 87 5.7 42.2 8.05 0.317
01:24 1019 30.09 848 25.04 7.5 45.5 88 5.6 42.1 7.86 0.309
01:25 1019 30.09 848 25.04 7.3 45.1 89 5.6 42.1 7.69 0.303
01:26 1019 30.09 848 25.04 7.2 45 90 5.6 42.1 7.62 0.3
01:27 1019 30.09 848 25.04 7.2 45 91 5.8 42.4 7.62 0.3
01:28 1019 30.09 848 25.04 7.3 45.2 90 5.9 42.6 7.71 0.304
01:29 1019 30.09 848 25.04 7.6 45.8 89 5.9 42.7 7.88 0.31
01:30 1019 30.09 848 25.04 7.9 46.2 87 5.8 42.5 7.99 0.315
01:31 1019 30.09 848 25.04 7.8 46.1 87 5.8 42.4 8.03 0.316
01:32 1019 30.09 848 25.04 7.7 45.9 88 5.8 42.5 7.99 0.315
01:33 1019 30.09 848 25.04 7.6 45.7 88 5.8 42.4 7.92 0.312
01:34 1019 30.09 848 25.04 7.6 45.6 89 5.8 42.4 7.87 0.31
01:35 1019 30.09 848 25.04 7.5 45.6 88 5.7 42.3 7.84 0.309
01:36 1019 30.09 848 25.04 7.5 45.5 89 5.7 42.3 7.79 0.307
01:37 1019 30.09 848 25.04 7.5 45.5 89 5.8 42.4 7.81 0.307
01:38 1019 30.09 848 25.04 7.5 45.5 88 5.7 42.3 7.77 0.306
01:39 1019 30.09 848 25.04 7.4 45.4 89 5.7 42.2 7.7 0.303
01:40 1019 30.09 848 25.04 7.4 45.2 89 5.6 42.1 7.68 0.302
01:41 1019 30.09 848 25.04 7.3 45.1 89 5.6 42.1 7.59 0.299
01:42 1019 30.09 848 25.04 7.3 45.1 89 5.6 42.1 7.57 0.298
01:43 1019 30.09 848 25.04 7.3 45.1 89 5.5 41.9 7.55 0.297
01:44 1019 30.09 848 25.04 7.2 45 89 5.6 42.1 7.56 0.298
01:45 1019 30.09 848 25.04 7.3 45.1 89 5.7 42.2 7.57 0.298
01:46 1019 30.09 848 25.04 7.3 45.2 89 5.6 42.1 7.66 0.302
01:47 1019 30.09 848 25.04 7.3 45.2 89 5.7 42.2 7.66 0.302
01:48 1019 30.09 848 25.04 7.3 45.2 89 5.6 42.2 7.67 0.302
01:49 1019 30.09 848 25.04 7.3 45.2 89 5.6 42.2 7.68 0.302
01:50 1019 30.09 848 25.04 7.3 45.2 89 5.6 42.1 7.62 0.3
01:51 1019 30.09 848 25.04 7.3 45.2 89 5.7 42.2 7.66 0.302
01:52 1019 30.09 848 25.04 7.3 45.2 89 5.7 42.3 7.62 0.3
01:53 1019 30.09 848 25.04 7.4 45.3 89 5.7 42.2 7.68 0.302
01:54 1019 30.09 848 25.04 7.4 45.4 89 5.7 42.2 7.74 0.305
01:55 1019 30.09 848 25.04 7.5 45.5 88 5.7 42.2 7.82 0.308
01:56 1019 30.09 848 25.04 7.6 45.7 88 5.7 42.2 7.91 0.311
01:57 1019 30.09 848 25.04 7.6 45.7 87 5.6 42.2 7.99 0.315
01:58 1019 30.09 848 25.04 7.7 45.8 87 5.7 42.2 7.96 0.313
01:59 1019 30.09 848 25.04 7.6 45.8 87 5.6 42.1 7.96 0.313
02:00 1019 30.09 848 25.04 7.7 45.8 88 5.8 42.4 8.01 0.315
02:01 1019 30.09 848 25.04 7.8 46.1 87 5.7 42.3 8.06 0.317
02:02 1019 30.09 848 25.04 7.8 46 87 5.7 42.3 8.04 0.317
02:03 1019 30.09 848 25.04 7.8 46 87 5.7 42.3 8.04 0.317
02:04 1019 30.09 848 25.04 7.8 46 87 5.8 42.4 8.03 0.316
02:05 1019 30.09 848 25.04 7.8 46.1 86 5.7 42.2 8.04 0.317
02:06 1019 30.09 848 25.04 7.8 46.1 87 5.8 42.4 8.06 0.317
02:07 1019 30.09 848 25.04 7.9 46.2 86 5.7 42.2 8.13 0.32
02:08 1019 30.09 848 25.04 7.9 46.3 85 5.6 42.1 8.13 0.32
02:09 1019 30.09 848 25.04 7.9 46.2 84 5.5 41.8 8.09 0.319
02:10 1019 30.09 848 25.04 7.7 45.9 84 5.3 41.5 8 0.315
02:11 1019 30.09 848 25.04 7.5 45.5 85 5.2 41.4 7.81 0.307
02:12 1019 30.09 848 25.04 7.3 45.2 86 5.2 41.4 7.68 0.302
02:13 1019 30.09 848 25.04 7.3 45.1 86 5.1 41.3 7.59 0.299
02:14 1019 30.09 849 25.07 7.1 44.8 87 5 41.1 7.48 0.294
02:15 1019 30.09 848 25.04 7.1 44.7 88 5.2 41.4 7.37 0.29
02:16 1019 30.09 848 25.04 7 44.7 88 5.2 41.4 7.36 0.29
02:17 1019 30.09 848 25.04 7.1 44.8 89 5.4 41.7 7.4 0.291
02:18 1019 30.09 848 25.04 7.2 44.9 88 5.3 41.5 7.49 0.295
02:19 1019 30.09 848 25.04 7.2 45 87 5.2 41.4 7.46 0.294
02:20 1019 30.09 848 25.04 7.2 45 87 5.1 41.3 7.49 0.295
02:21 1019 30.09 848 25.04 7.2 44.9 85 4.9 40.8 7.38 0.291
02:22 1019 30.09 849 25.07 7 44.5 85 4.7 40.5 7.3 0.287
02:23 1019 30.09 849 25.07 6.8 44.3 88 4.9 40.9 7.14 0.281
02:24 1019 30.09 849 25.07 6.9 44.3 87 4.9 40.8 7.15 0.281
02:25 1019 30.09 849 25.07 6.9 44.3 87 4.9 40.8 7.16 0.282
02:26 1019 30.09 849 25.07 6.9 44.5 87 4.9 40.8 7.2 0.283
02:27 1019 30.09 849 25.07 6.9 44.3 86 4.6 40.4 7.17 0.282
02:28 1019 30.09 849 25.07 6.7 44.1 87 4.8 40.6 7.05 0.278
02:29 1019 30.09 848 25.04 6.8 44.3 87 4.9 40.8 7.15 0.281
02:30 1019 30.09 849 25.07 7 44.6 87 4.9 40.9 7.23 0.285
02:31 1019 30.09 848 25.04 7.1 44.8 88 5.2 41.4 7.35 0.289
02:32 1019 30.09 848 25.04 7.5 45.5 86 5.3 41.5 7.78 0.306
02:33 1019 30.09 848 25.04 8.1 46.5 84 5.5 41.8 8.23 0.324
02:34 1019 30.09 848 25.04 8.4 47.1 81 5.3 41.6 8.58 0.338
02:35 1019 30.09 848 25.04 8.7 47.6 79 5.3 41.5 8.86 0.349
02:36 1019 30.09 848 25.04 8.8 47.8 78 5.1 41.3 8.99 0.354
02:37 1019 30.09 848 25.04 8.6 47.5 78 5 41 8.89 0.35
02:38 1019 30.09 849 25.07 8.4 47.1 79 4.9 40.9 8.72 0.343
02:39 1019 30.09 848 25.04 8.2 46.7 80 5 41 8.54 0.336
02:40 1019 30.09 849 25.07 8.1 46.6 81 5.1 41.1 8.45 0.333
02:41 1019 30.09 849 25.07 8.2 46.7 81 5 41.1 8.46 0.333
02:42 1019 30.09 849 25.07 8.2 46.7 80 5 40.9 8.38 0.33
02:43 1019 30.09 849 25.07 8.1 46.6 79 4.7 40.5 8.36 0.329
02:44 1019 30.09 849 25.07 8 46.3 79 4.6 40.2 8.12 0.32
02:45 1019 30.09 849 25.07 7.7 45.8 80 4.5 40.1 7.89 0.311
02:46 1019 30.09 849 25.07 7.5 45.6 83 4.8 40.6 7.83 0.308
02:47 1019 30.09 849 25.07 7.5 45.5 83 4.9 40.8 7.84 0.309
02:48 1019 30.09 849 25.07 7.7 45.8 83 5 41 8.03 0.316
02:49 1019 30.09 849 25.07 7.9 46.1 82 5 41 8.33 0.328
02:50 1019 30.09 849 25.07 8.1 46.6 80 4.9 40.8 8.63 0.34
02:51 1019 30.09 849 25.07 8.3 46.9 78 4.7 40.5 8.73 0.344
02:52 1019 30.09 849 25.07 8.3 46.9 75 4.2 39.5 8.58 0.338
02:53 1019 30.09 849 25.07 7.7 45.8 79 4.4 39.8 8.08 0.318
02:54 1019 30.09 849 25.07 7.3 45.1 82 4.4 39.9 7.69 0.303
02:55 1019 30.09 849 25.07 7.1 44.7 83 4.4 39.9 7.51 0.296
02:56 1019 30.09 849 25.07 6.9 44.5 83 4.3 39.7 7.32 0.288
02:57 1019 30.09 849 25.07 6.8 44.3 84 4.3 39.8 7.23 0.285
02:58 1019 30.09 849 25.07 6.8 44.2 85 4.4 40 7.14 0.281
02:59 1019 30.09 849 25.07 6.6 43.9 85 4.4 39.8 7.02 0.276
03:00 1019 30.09 849 25.07 6.6 43.9 88 4.7 40.5 6.984 0.275
03:01 1019 30.09 849 25.07 6.8 44.3 86 4.6 40.3 7.17 0.282
03:02 1019 30.09 849 25.07 6.9 44.4 84 4.4 40 7.17 0.282
03:03 1019 30.09 849 25.07 6.8 44.2 84 4.3 39.7 7.11 0.28
03:04 1019 30.09 849 25.07 6.6 43.9 85 4.2 39.6 6.997 0.275
03:05 1019 30.09 849 25.07 6.4 43.5 85 4 39.2 6.754 0.266
03:06 1019 30.09 849 25.07 6.1 42.9 87 4 39.2 6.494 0.256
03:07 1019 30.09 849 25.07 5.8 42.5 88 4 39.3 6.274 0.247
03:08 1019 30.09 849 25.07 5.7 42.2 90 4.1 39.4 6.127 0.241
03:09 1019 30.09 849 25.07 5.6 42 90 4.1 39.4 6.014 0.237
03:10 1019 30.09 849 25.07 5.6 42.1 91 4.3 39.7 6.032 0.237
03:11 1019 30.09 849 25.07 5.7 42.2 91 4.4 39.8 6.066 0.239
03:12 1019 30.09 849 25.07 5.8 42.4 91 4.3 39.8 6.167 0.243
03:13 1019 30.09 849 25.07 5.8 42.4 91 4.3 39.8 6.162 0.243
03:14 1019 30.09 849 25.07 5.8 42.4 90 4.3 39.8 6.179 0.243
03:15 1019 30.09 849 25.07 5.9 42.6 90 4.4 39.9 6.225 0.245
03:16 1019 30.09 849 25.07 5.9 42.6 90 4.4 40 6.264 0.247
03:17 1019 30.09 849 25.07 6 42.8 90 4.5 40.2 6.349 0.25
03:18 1019 30.09 849 25.07 6.1 42.9 90 4.5 40.1 6.417 0.253
03:19 1019 30.09 849 25.07 6.1 43 89 4.5 40.1 6.451 0.254
03:20 1019 30.09 849 25.07 6.1 42.9 89 4.5 40 6.468 0.255
03:21 1019 30.09 849 25.07 6.1 42.9 90 4.5 40 6.412 0.252
03:22 1019 30.09 849 25.07 6 42.8 90 4.6 40.2 6.378 0.251
03:23 1019 30.09 849 25.07 6.1 43 90 4.6 40.4 6.452 0.254
03:24 1019 30.09 849 25.07 6.2 43.2 89 4.6 40.3 6.554 0.258
03:25 1019 30.09 849 25.07 6.2 43.2 90 4.6 40.4 6.548 0.258
03:26 1019 30.09 849 25.07 6.2 43.2 90 4.7 40.4 6.576 0.259
03:27 1019 30.09 849 25.07 6.4 43.5 90 4.8 40.6 6.684 0.263
03:28 1019 30.09 849 25.07 6.5 43.8 89 4.9 40.9 6.871 0.271
03:29 1019 30.09 849 25.07 6.7 44.1 89 5 41 7.04 0.277
03:30 1019 30.09 849 25.07 6.8 44.3 88 5 40.9 7.17 0.282
03:31 1019 30.09 849 25.07 6.8 44.3 88 4.9 40.9 7.16 0.282
03:32 1019 30.09 849 25.07 6.8 44.3 88 4.9 40.8 7.15 0.281
03:33 1019 30.09 849 25.07 6.8 44.2 88 4.9 40.8 7.08 0.279
03:34 1019 30.09 849 25.07 6.6 43.9 88 4.8 40.7 6.945 0.273
03:35 1019 30.09 849 25.07 6.5 43.8 89 4.9 40.8 6.894 0.271
03:36 1019 30.09 849 25.07 6.6 43.8 89 4.9 40.8 6.928 0.273
03:37 1019 30.09 849 25.07 6.6 43.8 88 4.8 40.6 6.871 0.271
03:38 1019 30.09 849 25.07 6.5 43.7 89 4.7 40.5 6.803 0.268
03:39 1019 30.09 848 25.04 6.5 43.6 89 4.7 40.5 6.803 0.268
03:40 1019 30.09 848 25.04 6.4 43.5 89 4.7 40.4 6.781 0.267
03:41 1019 30.09 848 25.04 6.4 43.6 89 4.7 40.5 6.758 0.266
03:42 1019 30.09 848 25.04 6.4 43.6 89 4.8 40.6 6.803 0.268
03:43 1019 30.09 848 25.04 6.5 43.7 89 4.8 40.6 6.809 0.268
03:44 1019 30.09 848 25.04 6.5 43.7 89 4.8 40.6 6.871 0.271
03:45 1019 30.09 848 25.04 6.6 43.8 89 4.8 40.7 6.917 0.272
03:46 1019 30.09 848 25.04 6.6 44 88 4.9 40.8 6.939 0.273
03:47 1019 30.09 848 25.04 6.7 44 88 4.9 40.8 6.99 0.275
03:48 1019 30.09 848 25.04 6.7 44 88 4.8 40.7 7.03 0.277
03:49 1019 30.09 848 25.04 6.7 44 88 4.8 40.6 7.04 0.277
03:50 1019 30.09 848 25.04 6.6 43.9 88 4.7 40.5 6.962 0.274
03:51 1019 30.09 848 25.04 6.5 43.7 88 4.7 40.4 6.905 0.272
03:52 1019 30.09 848 25.04 6.4 43.6 88 4.7 40.4 6.809 0.268
03:53 1019 30.09 848 25.04 6.4 43.4 89 4.6 40.3 6.69 0.263
03:54 1019 30.09 848 25.04 6.2 43.2 89 4.6 40.2 6.611 0.26
03:55 1019 30.09 848 25.04 6.2 43.1 90 4.6 40.2 6.56 0.258
03:56 1019 30.09 848 25.04 6.1 43 90 4.5 40.2 6.487 0.255
03:57 1019 30.09 848 25.04 6 42.8 90 4.5 40.1 6.39 0.252
03:58 1019 30.09 848 25.04 5.9 42.6 91 4.5 40.1 6.311 0.248
03:59 1019 30.09 848 25.04 5.9 42.5 91 4.4 40 6.226 0.245
04:00 1019 30.09 848 25.04 5.8 42.5 91 4.5 40.1 6.17 0.243
04:01 1019 30.09 848 25.04 5.9 42.5 91 4.5 40.1 6.17 0.243
04:02 1019 30.09 848 25.04 5.8 42.5 91 4.5 40.2 6.192 0.244
04:03 1019 30.09 848 25.04 5.8 42.5 90 4.4 39.8 6.176 0.243
04:04 1019 30.09 848 25.04 5.8 42.4 90 4.3 39.8 6.091 0.24
04:05 1019 30.09 848 25.04 5.7 42.3 91 4.4 39.9 6.034 0.238
04:06 1019 30.09 848 25.04 5.7 42.2 91 4.3 39.7 5.961 0.235
04:07 1019 30.09 848 25.04 5.6 42.1 90 4.1 39.4 5.927 0.233
04:08 1019 30.09 848 25.04 5.6 42 91 4.2 39.5 5.847 0.23
04:09 1019 30.09 848 25.04 5.5 41.9 91 4.2 39.5 5.859 0.231
04:10 1019 30.09 848 25.04 5.6 42 91 4.2 39.5 5.881 0.232
04:11 1019 30.09 848 25.04 5.5 41.9 91 4.1 39.4 5.847 0.23
04:12 1019 30.09 848 25.04 5.4 41.7 91 4.1 39.3 5.729 0.226
04:13 1019 30.09 848 25.04 5.3 41.6 91 4 39.2 5.666 0.223
04:14 1019 30.09 848 25.04 5.2 41.4 92 4 39.2 5.599 0.22
04:15 1019 30.09 848 25.04 5.2 41.3 92 4 39.1 5.559 0.219
04:16 1019 30.09 848 25.04 5.2 41.3 93 4 39.3 5.514 0.217
04:17 1019 30.09 848 25.04 5.1 41.3 93 4 39.3 5.48 0.216
04:18 1019 30.09 848 25.04 5.2 41.3 93 4.1 39.3 5.485 0.216
04:19 1019 30.09 848 25.04 5.2 41.3 92 4 39.2 5.536 0.218
04:20 1019 30.09 848 25.04 5.2 41.3 93 4.1 39.4 5.514 0.217
04:21 1019 30.09 848 25.04 5.2 41.3 93 4.2 39.5 5.559 0.219
04:22 1019 30.09 848 25.04 5.3 41.5 93 4.2 39.6 5.587 0.22
04:23 1019 30.09 848 25.04 5.3 41.5 93 4.2 39.6 5.655 0.223
04:24 1019 30.09 848 25.04 5.4 41.7 93 4.3 39.7 5.712 0.225
04:25 1019 30.09 848 25.04 5.5 41.8 92 4.3 39.8 5.723 0.225
04:26 1019 30.09 848 25.04 5.5 41.9 92 4.3 39.8 5.847 0.23
04:27 1019 30.09 848 25.04 5.6 42 92 4.3 39.8 5.87 0.231
04:28 1019 30.09 848 25.04 5.6 42.1 91 4.3 39.8 5.915 0.233
04:29 1019 30.09 848 25.04 5.6 42.1 91 4.3 39.7 5.87 0.231
04:30 1019 30.09 848 25.04 5.6 42 91 4.2 39.6 5.87 0.231
04:31 1019 30.09 848 25.04 5.6 42 91 4.2 39.6 5.853 0.23
04:32 1019 30.09 848 25.04 5.6 42 91 4.2 39.6 5.881 0.232
04:33 1019 30.09 848 25.04 5.6 42 91 4.2 39.6 5.847 0.23
04:34 1019 30.09 848 25.04 5.6 42.1 91 4.3 39.7 5.847 0.23
04:35 1019 30.09 848 25.04 5.6 42 91 4.2 39.6 5.876 0.231
04:36 1019 30.09 848 25.04 5.6 42.1 91 4.2 39.6 5.87 0.231
04:37 1019 30.09 848 25.04 5.5 41.9 91 4.1 39.4 5.83 0.23
04:38 1019 30.09 848 25.04 5.5 42 91 4.2 39.6 5.797 0.228
04:39 1019 30.09 848 25.04 5.5 42 91 4.2 39.6 5.847 0.23
04:40 1019 30.09 848 25.04 5.6 42 91 4.3 39.7 5.819 0.229
04:41 1019 30.09 848 25.04 5.6 42.1 91 4.2 39.6 5.904 0.232
04:42 1019 30.09 848 25.04 5.6 42.1 91 4.2 39.6 5.876 0.231
04:43 1019 30.09 848 25.04 5.7 42.2 91 4.2 39.6 5.91 0.233
04:44 1019 30.09 848 25.04 5.7 42.3 90 4.2 39.6 5.949 0.234
04:45 1019 30.09 848 25.04 5.7 42.2 91 4.2 39.6 5.927 0.233
04:46 1019 30.09 848 25.04 5.7 42.3 91 4.4 39.8 6.017 0.237
04:47 1019 30.09 848 25.04 5.9 42.6 91 4.4 40 6.119 0.241
04:48 1019 30.09 848 25.04 5.9 42.7 90 4.4 39.9 6.147 0.242
04:49 1019 30.09 848 25.04 6 42.8 89 4.4 39.9 6.232 0.245
04:50 1019 30.09 848 25.04 6 42.9 88 4.3 39.7 6.243 0.246
04:51 1019 30.09 848 25.04 6 42.7 89 4.2 39.6 6.17 0.243
04:52 1019 30.09 848 25.04 5.9 42.6 89 4.2 39.5 6.13 0.241
04:53 1019 30.09 848 25.04 5.8 42.5 89 4.2 39.6 6.062 0.239
04:54 1019 30.09 848 25.04 5.8 42.5 89 4.2 39.6 6.096 0.24
04:55 1019 30.09 848 25.04 5.9 42.5 89 4.2 39.5 6.079 0.239
04:56 1019 30.09 848 25.04 5.8 42.5 89 4.2 39.6 6.028 0.237
04:57 1019 30.09 848 25.04 5.9 42.5 89 4.2 39.6 6.13 0.241
04:58 1019 30.09 848 25.04 5.9 42.7 89 4.3 39.7 6.102 0.24
04:59 1019 30.09 848 25.04 5.9 42.7 89 4.2 39.6 6.153 0.242
05:00 1019 30.09 848 25.04 5.9 42.6 89 4.1 39.4 6.13 0.241
05:01 1019 30.09 848 25.04 5.8 42.4 88 4 39.2 6.04 0.238
05:02 1019 30.09 848 25.04 5.8 42.4 88 4 39.2 6.045 0.238
05:03 1019 30.09 848 25.04 5.8 42.4 89 4.1 39.5 6.062 0.239
05:04 1019 30.09 848 25.04 6 42.7 89 4.3 39.8 6.164 0.243
05:05 1019 30.09 848 25.04 6.3 43.3 88 4.4 40 6.396 0.252
05:06 1019 30.09 848 25.04 6.6 43.9 86 4.4 40 6.611 0.26
05:07 1019 30.09 848 25.04 6.9 44.4 85 4.4 40 6.837 0.269
05:08 1019 30.09 848 25.04 7 44.5 84 4.4 40 6.962 0.274
05:09 1019 30.09 848 25.04 7 44.7 84 4.5 40.1 7.11 0.28
05:10 1019 30.09 848 25.04 7.1 44.8 83 4.4 39.9 7.18 0.283
05:11 1019 30.09 848 25.04 7 44.6 83 4.4 39.8 7.15 0.281
05:12 1019 30.09 848 25.04 6.9 44.5 84 4.4 39.9 7.08 0.279
05:13 1019 30.09 848 25.04 6.8 44.3 84 4.3 39.7 7.02 0.276
05:14 1019 30.09 848 25.04 6.7 44.1 84 4.2 39.6 6.939 0.273
05:15 1019 30.09 848 25.04 6.5 43.7 85 4.2 39.5 6.764 0.266
05:16 1019 30.09 848 25.04 6.4 43.5 86 4.2 39.5 6.645 0.262
05:17 1019 30.09 848 25.04 6.3 43.4 86 4.2 39.5 6.651 0.262
05:18 1019 30.09 848 25.04 6.3 43.4 87 4.3 39.7 6.594 0.26
05:19 1019 30.09 848 25.04 6.2 43.2 87 4.2 39.6 6.572 0.259
05:20 1019 30.09 848 25.04 6.3 43.3 87 4.2 39.6 6.577 0.259
05:21 1019 30.09 848 25.04 6.2 43.2 86 4.1 39.3 6.538 0.257
05:22 1019 30.09 848 25.04 6.1 43 86 4 39.2 6.419 0.253
05:23 1019 30.09 848 25.04 6 42.7 87 3.9 39.1 6.294 0.248
05:24 1019 30.09 848 25.04 5.9 42.5 87 3.9 39.1 6.215 0.245
05:25 1019 30.09 848 25.04 5.8 42.4 88 4 39.1 6.091 0.24
05:26 1019 30.09 848 25.04 5.7 42.3 89 4 39.2 6.04 0.238
05:27 1019 30.09 848 25.04 5.7 42.2 89 4 39.1 5.972 0.235
05:28 1019 30.09 848 25.04 5.7 42.2 89 4 39.1 6.045 0.238
05:29 1019 30.09 848 25.04 5.6 42.1 89 3.9 39 5.949 0.234
05:30 1019 30.09 848 25.04 5.6 42.1 89 3.9 39 5.921 0.233
05:31 1019 30.09 848 25.04 5.6 42.1 89 3.9 39.1 5.898 0.232
05:32 1019 30.09 848 25.04 5.5 42 90 4 39.1 5.853 0.23
05:33 1019 30.09 848 25.04 5.6 42.1 90 4 39.3 5.893 0.232
05:34 1019 30.09 848 25.04 5.6 42.2 90 4.1 39.4 5.955 0.234
05:35 1019 30.09 848 25.04 5.7 42.2 90 4.2 39.5 5.961 0.235
05:36 1019 30.09 848 25.04 5.7 42.2 89 4 39.2 5.972 0.235
05:37 1019 30.09 848 25.04 5.6 42.1 89 3.9 39.1 5.87 0.231
05:38 1019 30.09 848 25.04 5.5 41.8 89 3.8 38.8 5.757 0.227
05:39 1019 30.09 848 25.04 5.4 41.8 90 3.9 39 5.734 0.226
05:40 1019 30.09 848 25.04 5.5 41.9 89 3.9 39 5.7 0.224
05:41 1019 30.09 848 25.04 5.6 42 90 4.1 39.3 5.785 0.228
05:42 1019 30.09 848 25.04 5.7 42.2 90 4.2 39.5 5.915 0.233
05:43 1019 30.09 848 25.04 5.9 42.6 89 4.2 39.6 6.108 0.24
05:44 1019 30.09 848 25.04 6.1 42.9 88 4.3 39.7 6.238 0.246
05:45 1019 30.09 848 25.04 6.2 43.1 87 4.2 39.6 6.329 0.249
05:46 1019 30.09 848 25.04 6.2 43.1 87 4.1 39.4 6.358 0.25
05:47 1019 30.09 848 25.04 6.1 43 87 4.1 39.4 6.336 0.249
05:48 1019 30.09 848 25.04 6.2 43.1 87 4.1 39.5 6.403 0.252
05:49 1019 30.09 848 25.04 6.3 43.3 86 4.1 39.4 6.443 0.254
05:50 1019 30.09 848 25.04 6.3 43.3 86 4.1 39.3 6.431 0.253
05:51 1019 30.09 848 25.04 6.2 43.2 86 4.1 39.4 6.409 0.252
05:52 1019 30.09 848 25.04 6.2 43.1 87 4.1 39.4 6.392 0.252
05:53 1019 30.09 848 25.04 6.1 42.9 87 4.1 39.4 6.307 0.248
05:54 1019 30.09 848 25.04 6 42.8 87 4 39.2 6.273 0.247
05:55 1019 30.09 848 25.04 5.9 42.5 87 3.9 39.1 6.188 0.244
05:56 1019 30.09 848 25.04 5.8 42.4 88 3.9 39.1 6.086 0.24
05:57 1019 30.09 848 25.04 5.7 42.2 89 3.9 39.1 5.995 0.236
05:58 1019 30.09 848 25.04 5.6 42.1 89 3.9 39 5.91 0.233
05:59 1019 30.09 848 25.04 5.6 42 89 4 39.1 5.859 0.231
06:00 1019 30.09 848 25.04 5.5 41.9 90 4 39.1 5.827 0.229
06:01 1019 30.09 848 25.04 5.5 42 90 4 39.3 5.861 0.231
06:02 1019 30.09 848 25.04 5.5 41.9 90 4 39.1 5.861 0.231
06:03 1019 30.09 848 25.04 5.5 42 90 4 39.1 5.849 0.23
06:04 1019 30.09 848 25.04 5.6 42 90 4.1 39.4 5.894 0.232
06:05 1019 30.09 848 25.04 5.6 42.1 90 4.1 39.5 5.923 0.233
06:06 1019 30.09 848 25.04 5.7 42.2 90 4.2 39.5 5.952 0.234
06:07 1019 30.09 848 25.04 5.8 42.4 90 4.3 39.7 6.065 0.239
06:08 1019 30.09 848 25.04 5.9 42.6 89 4.3 39.7 6.054 0.238
06:09 1019 30.09 848 25.04 6 42.8 89 4.3 39.8 6.225 0.245
06:10 1019 30.09 848 25.04 6.2 43.1 88 4.3 39.8 6.394 0.252
06:11 1019 30.09 848 25.04 6.4 43.5 87 4.4 39.8 6.547 0.258
06:12 1019 30.09 848 25.04 6.4 43.5 87 4.4 39.9 6.537 0.257
06:13 1019 30.09 848 25.04 6.4 43.5 87 4.4 39.9 6.576 0.259
06:14 1019 30.09 848 25.04 6.4 43.6 87 4.5 40 6.656 0.262
06:15 1019 30.09 848 25.04 6.6 43.8 87 4.5 40.1 6.752 0.266
06:16 1019 30.09 848 25.04 6.7 44.1 86 4.5 40.2 6.837 0.269
06:17 1019 30.09 848 25.04 6.7 44 86 4.4 40 6.837 0.269
06:18 1019 30.09 848 25.04 6.5 43.6 87 4.4 39.9 6.708 0.264
06:19 1019 30.09 848 25.04 6.4 43.5 87 4.4 40 6.6 0.26
06:20 1019 30.09 848 25.04 6.4 43.5 87 4.5 40 6.668 0.263
06:21 1019 30.09 848 25.04 6.5 43.7 87 4.5 40 6.702 0.264
06:22 1019 30.09 848 25.04 6.6 43.9 86 4.4 40 6.759 0.266
06:23 1019 30.09 848 25.04 6.6 43.9 86 4.5 40 6.793 0.267
06:24 1019 30.09 848 25.04 6.6 43.9 86 4.5 40.1 6.827 0.269
06:25 1019 30.09 848 25.04 6.6 44 86 4.4 40 6.872 0.271
06:26 1019 30.09 848 25.04 6.6 43.9 86 4.4 40 6.85 0.27
06:27 1019 30.09 848 25.04 6.5 43.7 86 4.4 39.9 6.76 0.266
06:28 1019 30.09 848 25.04 6.4 43.5 87 4.4 39.9 6.652 0.262
06:29 1019 30.09 848 25.04 6.3 43.3 88 4.4 40 6.545 0.258
06:30 1019 30.09 848 25.04 6.2 43.2 89 4.5 40.1 6.522 0.257
06:31 1019 30.09 848 25.04 6.3 43.3 89 4.5 40.1 6.533 0.257
06:32 1019 30.09 848 25.04 6.3 43.3 89 4.5 40.1 6.566 0.259
06:33 1019 30.09 848 25.04 6.3 43.3 88 4.5 40.1 6.594 0.26
06:34 1019 30.09 848 25.04 6.3 43.3 88 4.5 40.1 6.572 0.259
06:35 1019 30.09 848 25.04 6.2 43.2 88 4.5 40 6.571 0.259
06:36 1019 30.09 848 25.04 6.1 43 89 4.4 39.9 6.474 0.255
06:37 1019 30.09 848 25.04 6.1 43 89 4.4 39.9 6.446 0.254
06:38 1019 30.09 848 25.04 6.1 43 89 4.4 40 6.447 0.254
06:39 1019 30.09 848 25.04 6.1 42.9 90 4.5 40.1 6.401 0.252
06:40 1019 30.09 848 25.04 6.1 42.9 89 4.4 40 6.413 0.252
06:41 1019 30.09 848 25.04 6 42.9 89 4.4 39.9 6.434 0.253
06:42 1019 30.09 848 25.04 6.1 42.9 89 4.4 40 6.383 0.251
06:43 1019 30.09 848 25.04 6 42.8 89 4.4 39.9 6.383 0.251
06:44 1019 30.09 848 25.04 6.1 42.9 89 4.4 39.9 6.388 0.251
06:45 1019 30.09 848 25.04 6 42.8 89 4.4 39.8 6.383 0.251
06:46 1019 30.09 848 25.04 6 42.8 90 4.4 39.9 6.371 0.251
06:47 1019 30.09 848 25.04 6 42.9 90 4.5 40.1 6.434 0.253
06:48 1019 30.09 848 25.04 6.1 43 89 4.5 40.1 6.497 0.256
06:49 1019 30.09 848 25.04 6.1 43.1 89 4.5 40.1 6.485 0.255
06:50 1019 30.09 848 25.04 6.1 43 89 4.5 40.1 6.469 0.255
06:51 1019 30.09 848 25.04 6.1 43 89 4.5 40 6.492 0.256
06:52 1019 30.09 848 25.04 6.1 42.9 90 4.5 40.1 6.497 0.256
06:53 1019 30.09 848 25.04 6.1 43 89 4.5 40.1 6.502 0.256
06:54 1019 30.09 848 25.04 6.1 42.9 89 4.4 40 6.462 0.254
06:55 1019 30.09 848 25.04 6 42.8 89 4.4 39.9 6.423 0.253
06:56 1019 30.09 848 25.04 6 42.7 89 4.3 39.8 6.32 0.249
06:57 1019 30.09 848 25.04 5.9 42.5 90 4.3 39.7 6.235 0.245
06:58 1019 30.09 848 25.04 5.8 42.4 90 4.3 39.7 6.133 0.241
06:59 1019 30.09 848 25.04 5.8 42.4 90 4.3 39.7 6.127 0.241
07:00 1019 30.09 848 25.04 5.9 42.6 90 4.4 40 6.218 0.245
07:01 1019 30.09 848 25.04 6.1 42.9 89 4.4 40 6.382 0.251
07:02 1019 30.09 848 25.04 6.2 43.2 89 4.5 40.1 6.528 0.257
07:03 1019 30.09 848 25.04 6.3 43.4 88 4.5 40.1 6.63 0.261
07:04 1019 30.09 848 25.04 6.4 43.5 88 4.5 40.1 6.664 0.262
07:05 1019 30.09 848 25.04 6.3 43.4 88 4.5 40.1 6.669 0.263
07:06 1019 30.09 848 25.04 6.4 43.5 88 4.5 40.1 6.669 0.263
07:07 1019 30.09 848 25.04 6.5 43.6 87 4.5 40.1 6.76 0.266
07:08 1019 30.09 848 25.04 6.5 43.8 87 4.5 40.1 6.833 0.269
07:09 1019 30.09 848 25.04 6.5 43.7 87 4.5 40 6.839 0.269
07:10 1019 30.09 848 25.04 6.5 43.7 87 4.5 40.1 6.805 0.268
07:11 1019 30.09 848 25.04 6.5 43.6 87 4.5 40.1 6.771 0.267
07:12 1019 30.09 848 25.04 6.4 43.5 87 4.5 40.1 6.714 0.264
07:13 1019 30.09 848 25.04 6.4 43.5 88 4.5 40.1 6.731 0.265
07:14 1019 30.09 848 25.04 6.4 43.6 88 4.5 40.1 6.759 0.266
07:15 1019 30.09 848 25.04 6.4 43.6 88 4.5 40.1 6.776 0.267
07:16 1019 30.09 848 25.04 6.5 43.6 88 4.5 40.2 6.759 0.266
07:17 1019 30.09 848 25.04 6.4 43.5 88 4.5 40.1 6.736 0.265
07:18 1019 30.09 848 25.04 6.3 43.3 88 4.5 40 6.634 0.261
07:19 1019 30.09 848 25.04 6.3 43.4 88 4.5 40.1 6.572 0.259
07:20 1019 30.09 848 25.04 6.3 43.4 88 4.5 40.1 6.629 0.261
07:21 1019 30.09 848 25.04 6.4 43.5 88 4.5 40.1 6.64 0.261
07:22 1019 30.09 848 25.04 6.4 43.5 88 4.5 40.1 6.668 0.263
07:23 1019 30.09 848 25.04 6.4 43.6 87 4.5 40.1 6.719 0.265
07:24 1019 30.09 848 25.04 6.4 43.6 87 4.5 40.1 6.764 0.266
07:25 1019 30.09 848 25.04 6.4 43.5 87 4.5 40 6.753 0.266
07:26 1019 30.09 848 25.04 6.4 43.5 88 4.5 40.1 6.725 0.265
07:27 1019 30.09 848 25.04 6.3 43.4 88 4.5 40.1 6.702 0.264
07:28 1019 30.09 848 25.04 6.4 43.6 88 4.6 40.3 6.747 0.266
07:29 1019 30.09 848 25.04 6.5 43.7 88 4.7 40.4 6.855 0.27
07:30 1019 30.09 848 25.04 6.6 43.9 88 4.7 40.5 6.94 0.273
07:31 1019 30.09 848 25.04 6.6 44 89 4.9 40.8 7.06 0.278
07:32 1019 30.09 848 25.04 6.7 44 89 5 40.9 7.14 0.281
07:33 1019 30.09 848 25.04 6.7 44.1 89 5.1 41.1 7.21 0.284
07:34 1019 30.09 848 25.04 6.8 44.3 89 5.1 41.3 7.3 0.287
07:35 1019 30.09 848 25.04 7 44.5 90 5.4 41.7 7.48 0.294
07:36 1019 30.09 848 25.04 7.1 44.8 90 5.6 42.1 7.6 0.299
07:37 1019 30.09 848 25.04 7.3 45.1 90 5.8 42.4 7.85 0.309
07:38 1019 30.09 848 25.04 7.5 45.5 90 5.9 42.6 7.99 0.315
07:39 1019 30.09 848 25.04 7.7 45.8 89 6 42.8 8.13 0.32
07:40 1019 30.09 848 25.04 7.9 46.2 91 6.4 43.6 8.36 0.329
07:41 1019 30.09 848 25.04 8.2 46.7 90 6.6 44 8.66 0.341
07:42 1019 30.09 848 25.04 8.5 47.2 88 6.6 44 8.9 0.35
07:43 1019 30.09 848 25.04 8.7 47.6 87 6.6 43.9 9.05 0.356
07:44 1019 30.09 848 25.04 8.8 47.9 85 6.5 43.6 9.12 0.359
07:45 1019 30.09 848 25.04 8.8 47.9 85 6.4 43.6 9.12 0.359
07:46 1019 30.09 848 25.04 8.9 48 84 6.4 43.5 9.3 0.366
07:47 1019 30.09 848 25.04 8.9 48 86 6.7 44.1 9.46 0.372
07:48 1019 30.09 848 25.04 9 48.1 87 7 44.5 9.64 0.38
07:49 1019 30.09 848 25.04 9.1 48.4 84 6.6 43.9 9.73 0.383
07:50 1019 30.09 848 25.04 9.3 48.7 82 6.4 43.6 9.88 0.389
07:51 1019 30.09 848 25.04 9.4 48.9 83 6.6 43.9 9.94 0.391
07:52 1019 30.09 848 25.04 9.6 49.2 84 7 44.6 10.16 0.4
07:53 1019 30.09 848 25.04 9.8 49.6 84 7.2 45 10.38 0.409
07:54 1019 30.09 848 25.04 10 49.9 82 7.1 44.7 10.62 0.418
07:55 1019 30.09 848 25.04 10.1 50.3 82 7.3 45.1 10.74 0.423
07:56 1019 30.09 848 25.04 10.4 50.6 82 7.4 45.3 11.01 0.433
07:57 1019 30.09 849 25.07 10.5 50.9 79 7 44.6 11.19 0.441
07:58 1019 30.09 849 25.07 10.7 51.2 80 7.3 45.2 11.38 0.448
07:59 1019 30.09 849 25.07 10.8 51.4 80 7.5 45.4 11.54 0.454
08:00 1019 30.09 849 25.07 10.8 51.5 77 7.1 44.7 11.54 0.454
08:01 1019 30.09 849 25.07 10.9 51.6 76 6.8 44.3 11.52 0.454
08:02 1019 30.09 849 25.07 11 51.7 74 6.6 43.8 11.54 0.454
08:03 1019 30.09 849 25.07 11 51.7 75 6.8 44.2 11.48 0.452
08:04 1019 30.09 849 25.07 11 51.8 77 7.2 44.9 11.53 0.454
08:05 1019 30.09 849 25.07 11.1 51.9 73 6.5 43.7 11.52 0.454
08:06 1019 30.09 849 25.07 11.1 51.9 74 6.6 43.9 11.57 0.456
08:07 1019 30.09 849 25.07 11.1 52 75 6.9 44.3 11.62 0.457
08:08 1019 30.09 849 25.07 11.2 52.1 72 6.4 43.5 11.69 0.46
08:09 1019 30.09 849 25.07 11.2 52.1 74 6.8 44.3 11.7 0.461
08:10 1019 30.09 848 25.04 11.3 52.3 75 7.1 44.8 11.71 0.461
08:11 1019 30.09 848 25.04 11.4 52.4 74 6.9 44.4 11.83 0.466
08:12 1019 30.09 848 25.04 11.4 52.4 75 7 44.6 11.84 0.466
08:13 1019 30.09 848 25.04 11.4 52.6 74 7 44.6 11.88 0.468
08:14 1019 30.09 849 25.07 11.5 52.7 73 6.9 44.5 11.97 0.471
08:15 1019 30.09 849 25.07 11.5 52.7 73 6.9 44.4 11.97 0.471
08:16 1019 30.09 849 25.07 11.6 52.8 76 7.6 45.7 11.97 0.471
08:17 1019 30.09 849 25.07 11.6 52.8 77 7.7 45.8 12.06 0.475
08:18 1019 30.09 849 25.07 11.7 53 77 7.7 45.9 12.15 0.478
08:19 1019 30.09 849 25.07 11.8 53.2 74 7.3 45.2 12.2 0.48
08:20 1019 30.09 849 25.07 11.8 53.2 73 7.1 44.8 12.29 0.484
08:21 1019 30.09 849 25.07 11.8 53.3 72 6.9 44.4 12.24 0.482
08:22 1019 30.09 849 25.07 11.9 53.4 76 7.9 46.2 12.36 0.487
08:23 1019 30.09 849 25.07 12 53.6 75 7.6 45.7 12.47 0.491
08:24 1019 30.09 849 25.07 12.1 53.8 75 7.8 46 12.62 0.497
08:25 1019 30.09 848 25.04 12.2 54 75 8 46.4 12.75 0.502
08:26 1019 30.09 848 25.04 12.4 54.3 76 8.3 46.9 12.87 0.507
08:27 1019 30.09 848 25.04 12.5 54.4 71 7.4 45.3 12.96 0.51
08:28 1019 30.09 848 25.04 12.4 54.4 72 7.5 45.4 12.95 0.51
08:29 1019 30.09 848 25.04 12.5 54.4 74 8.1 46.5 12.96 0.51
08:30 1019 30.09 848 25.04 12.5 54.5 73 7.7 45.9 13.01 0.512
08:31 1019 30.09 848 25.04 12.5 54.4 72 7.6 45.7 13.02 0.513
08:32 1019 30.09 848 25.04 12.4 54.4 74 7.9 46.2 13 0.512
08:33 1019 30.09 848 25.04 12.5 54.4 74 7.9 46.2 12.97 0.511
08:34 1019 30.09 848 25.04 12.5 54.5 74 8 46.4 13.04 0.513
08:35 1019 30.09 848 25.04 12.5 54.5 71 7.5 45.5 13.01 0.512
08:36 1019 30.09 848 25.04 12.5 54.5 75 8.2 46.7 12.98 0.511
08:37 1019 30.09 848 25.04 12.5 54.6 72 7.6 45.7 13 0.512
08:38 1019 30.09 848 25.04 12.5 54.5 72 7.6 45.6 12.96 0.51
08:39 1019 30.09 848 25.04 12.5 54.5 73 7.8 46.1 12.96 0.51
08:40 1019 30.09 848 25.04 12.6 54.6 71 7.6 45.6 13.1 0.516
08:41 1019 30.09 848 25.04 12.7 54.8 72 7.7 45.8 13.11 0.516
08:42 1019 30.09 848 25.04 12.7 54.8 70 7.4 45.3 13.16 0.518
08:43 1019 30.09 848 25.04 12.7 54.8 73 8 46.4 13.22 0.52
08:44 1019 30.09 848 25.04 12.8 55 75 8.5 47.2 13.3 0.524
08:45 1019 30.09 848 25.04 12.8 55.1 72 7.9 46.1 13.34 0.525
08:46 1019 30.09 848 25.04 12.8 55.1 70 7.5 45.6 13.35 0.526
08:47 1019 30.09 848 25.04 12.8 55 71 7.6 45.7 13.25 0.522
08:48 1019 30.09 848 25.04 12.8 55 71 7.7 45.8 13.25 0.522
08:49 1019 30.09 849 25.07 12.9 55.2 74 8.4 47.2 13.33 0.525
08:50 1019 30.09 849 25.07 12.9 55.3 76 8.7 47.7 13.36 0.526
08:51 1019 30.09 849 25.07 13 55.4 72 8.1 46.6 13.45 0.53
08:52 1019 30.09 849 25.07 13 55.5 74 8.6 47.4 13.45 0.53
08:53 1019 30.09 849 25.07 13.1 55.5 74 8.5 47.3 13.5 0.531
08:54 1019 30.09 849 25.07 13.2 55.7 76 9.1 48.4 13.62 0.536
08:55 1019 30.09 849 25.07 13.3 55.9 73 8.7 47.6 13.69 0.539
08:56 1019 30.09 849 25.07 13.3 55.9 74 8.7 47.7 13.72 0.54
08:57 1019 30.09 849 25.07 13.4 56 71 8.3 47 13.77 0.542
08:58 1019 30.09 848 25.04 13.4 56 71 8.1 46.7 13.76 0.542
08:59 1019 30.09 849 25.07 13.3 55.9 73 8.5 47.3 13.71 0.54
09:00 1019 30.09 848 25.04 13.3 55.9 70 7.9 46.3 13.66 0.538
09:01 1019 30.09 848 25.04 13.2 55.7 71 8.1 46.6 13.61 0.536
09:02 1019 30.09 848 25.04 13.2 55.7 70 8 46.4 13.58 0.535
09:03 1019 30.09 848 25.04 13.3 55.9 74 8.8 47.8 13.71 0.54
09:04 1019 30.09 848 25.04 13.5 56.2 70 8.2 46.7 13.91 0.548
09:05 1019 30.09 849 25.07 13.6 56.5 68 7.9 46.2 14.04 0.553
09:06 1019 30.09 849 25.07 13.5 56.4 71 8.4 47.2 13.93 0.548
09:07 1019 30.09 849 25.07 13.5 56.3 69 8 46.4 13.93 0.548
09:08 1019 30.09 849 25.07 13.6 56.5 73 9 48.1 14.08 0.554
09:09 1019 30.09 849 25.07 13.8 56.8 70 8.5 47.2 14.26 0.561
09:10 1019 30.09 849 25.07 13.9 56.9 68 8.2 46.7 14.29 0.563
09:11 1019 30.09 849 25.07 13.8 56.8 68 8 46.4 14.22 0.56
09:12 1019 30.09 849 25.07 13.8 56.8 71 8.6 47.5 14.24 0.561
09:13 1019 30.09 849 25.07 13.9 57 69 8.3 47 14.41 0.567
09:14 1019 30.09 849 25.07 14 57.3 68 8.3 46.9 14.48 0.57
09:15 1019 30.09 849 25.07 14.2 57.5 70 8.7 47.7 14.62 0.576
09:16 1019 30.09 849 25.07 14.3 57.7 71 9 48.3 14.73 0.58
09:17 1019 30.09 849 25.07 14.4 57.9 69 8.8 47.8 14.88 0.586
09:18 1019 30.09 849 25.07 14.5 58.1 70 9.1 48.3 14.92 0.587
09:19 1019 30.09 849 25.07 14.5 58.2 65 8.1 46.6 15.01 0.591
09:20 1019 30.09 848 25.04 14.5 58.1 67 8.6 47.4 14.97 0.589
09:21 1019 30.09 848 25.04 14.5 58.2 67 8.6 47.4 15.01 0.591
09:22 1019 30.09 848 25.04 14.6 58.2 68 8.8 47.9 15.09 0.594
09:23 1019 30.09 848 25.04 14.6 58.3 67 8.7 47.6 15.03 0.592
09:24 1019 30.09 848 25.04 14.6 58.2 67 8.6 47.4 15.05 0.593
09:25 1019 30.09 848 25.04 14.6 58.3 64 8.1 46.5 15.09 0.594
09:26 1019 30.09 848 25.04 14.7 58.4 67 8.7 47.7 15.14 0.596
09:27 1019 30.09 848 25.04 14.7 58.4 65 8.2 46.8 15.06 0.593
09:28 1019 30.09 848 25.04 14.6 58.2 64 8 46.3 14.94 0.588
09:29 1019 30.09 848 25.04 14.4 58 68 8.6 47.5 14.88 0.586
09:30 1019 30.09 848 25.04 14.4 57.9 67 8.4 47.1 14.84 0.584
09:31 1019 30.09 848 25.04 14.4 58 70 9.1 48.3 14.91 0.587
09:32 1019 30.09 848 25.04 14.5 58.2 64 7.8 46.1 15 0.591
09:33 1019 30.09 848 25.04 14.6 58.4 65 8.2 46.7 15.08 0.594
09:34 1019 30.09 848 25.04 14.7 58.4 64 7.9 46.3 15.17 0.597
09:35 1019 30.09 848 25.04 14.8 58.7 63 7.8 46.1 15.35 0.604
09:36 1019 30.09 848 25.04 14.9 58.9 60 7.4 45.3 15.44 0.608
09:37 1019 30.09 848 25.04 15.2 59.3 65 8.7 47.6 15.67 0.617
09:38 1019 30.09 848 25.04 15.4 59.8 60 7.8 46.1 15.94 0.628
09:39 1019 30.09 848 25.04 15.6 60 56 7 44.6 16.05 0.632
09:40 1019 30.09 848 25.04 15.6 60.1 61 8.2 46.7 16.03 0.631
09:41 1019 30.09 848 25.04 15.7 60.2 60 8.1 46.5 16.16 0.636
09:42 1019 30.09 848 25.04 15.7 60.3 60 8 46.4 16.22 0.639
09:43 1019 30.09 848 25.04 15.7 60.3 57 7.2 45 16.2 0.638
09:44 1019 30.09 848 25.04 15.7 60.2 62 8.5 47.2 16.15 0.636
09:45 1019 30.09 848 25.04 15.8 60.4 65 9.2 48.6 16.3 0.642
09:46 1019 30.09 848 25.04 16 60.9 61 8.6 47.4 16.54 0.651
09:47 1019 30.09 848 25.04 16.2 61.2 57 7.7 45.9 16.67 0.656
09:48 1019 30.09 848 25.04 16.2 61.2 63 9.2 48.6 16.73 0.659
09:49 1019 30.09 848 25.04 16.4 61.5 59 8.4 47.1 16.89 0.665
09:50 1019 30.09 848 25.04 16.6 61.8 60 8.8 47.8 17.02 0.67
09:51 1019 30.09 848 25.04 16.6 61.9 55 7.7 45.8 17.03 0.67
09:52 1019 30.09 848 25.04 16.8 62.2 56 8.2 46.7 17.24 0.679
09:53 1019 30.09 848 25.04 17 62.6 65 10.4 50.7 17.45 0.687
09:54 1019 30.09 848 25.04 17.2 63 54 7.8 46.1 17.54 0.691
09:55 1019 30.09 848 25.04 17 62.6 51 7 44.6 17.38 0.684
09:56 1019 30.09 848 25.04 16.8 62.3 52 7.1 44.8 17.27 0.68
09:57 1019 30.09 848 25.04 16.8 62.2 56 8.1 46.6 17.25 0.679
09:58 1019 30.09 848 25.04 16.9 62.4 59 9 48.2 17.31 0.681
09:59 1019 30.09 848 25.04 16.9 62.4 58 8.7 47.7 17.36 0.683
10:00 1019 30.09 848 25.04 16.9 62.3 52 7.1 44.9 17.23 0.678
10:01 1019 30.09 848 25.04 16.6 61.9 54 7.5 45.4 17 0.669
10:02 1019 30.09 848 25.04 16.4 61.6 53 7 44.6 16.78 0.661
10:03 1019 30.09 848 25.04 16.3 61.4 53 6.8 44.3 16.62 0.654
10:04 1019 30.09 848 25.04 16.2 61.2 57 7.8 46.1 16.41 0.646
10:05 1019 30.09 848 25.04 16.1 61 59 8.2 46.7 16.35 0.644
10:06 1019 30.09 848 25.04 16.1 60.9 58 8 46.4 16.33 0.643
10:07 1019 30.09 848 25.04 16 60.8 57 7.6 45.7 16.33 0.643
10:08 1019 30.09 848 25.04 15.9 60.7 57 7.6 45.6 16.28 0.641
10:09 1019 30.09 848 25.04 16 60.7 57 7.5 45.6 16.22 0.639
10:10 1019 30.09 848 25.04 16.1 60.9 61 8.5 47.4 16.27 0.641
10:11 1019 30.09 848 25.04 16.1 61 60 8.5 47.4 16.37 0.644
10:12 1019 30.09 848 25.04 16.2 61.1 62 8.8 47.9 16.41 0.646
10:13 1019 30.09 848 25.04 16.2 61.1 60 8.4 47.1 16.41 0.646
10:14 1019 30.09 848 25.04 16.2 61.1 60 8.6 47.5 16.4 0.646
10:15 1019 30.09 848 25.04 16.1 61 59 8.2 46.8 16.33 0.643
10:16 1019 30.09 848 25.04 16 60.9 60 8.3 47 16.23 0.639
10:17 1019 30.09 848 25.04 16 60.7 64 9.2 48.6 16.16 0.636
10:18 1019 30.09 848 25.04 16 60.7 62 8.8 47.8 16.18 0.637
10:19 1019 30.09 848 25.04 15.9 60.5 64 9.2 48.6 16.08 0.633
10:20 1019 30.09 848 25.04 15.7 60.3 64 9 48.2 15.88 0.625
10:21 1019 30.09 848 25.04 15.5 59.9 66 9.3 48.7 15.67 0.617
10:22 1019 30.09 848 25.04 15.4 59.7 66 9.2 48.6 15.53 0.611
10:23 1019 30.09 848 25.04 15.3 59.6 65 8.8 47.8 15.5 0.61
10:24 1019 30.09 848 25.04 15.3 59.5 65 8.8 47.8 15.44 0.608
10:25 1019 30.09 848 25.04 15.2 59.4 65 8.7 47.7 15.36 0.605
10:26 1019 30.09 848 25.04 15.2 59.3 67 9.2 48.5 15.34 0.604
10:27 1019 30.09 848 25.04 15.2 59.4 68 9.5 49.1 15.41 0.607
10:28 1019 30.09 848 25.04 15.3 59.5 66 9.1 48.4 15.52 0.611
10:29 1019 30.09 848 25.04 15.4 59.6 67 9.2 48.6 15.54 0.612
10:30 1019 30.09 848 25.04 15.4 59.7 64 8.6 47.5 15.62 0.615
10:31 1019 30.09 848 25.04 15.4 59.7 66 9.2 48.5 15.63 0.615
10:32 1019 30.09 848 25.04 15.4 59.7 64 8.8 47.8 15.66 0.617
10:33 1019 30.09 848 25.04 15.4 59.7 65 8.9 48 15.66 0.617
10:34 1019 30.09 848 25.04 15.4 59.8 69 9.9 49.8 15.75 0.62
10:35 1019 30.09 848 25.04 15.6 60 64 8.9 48 15.84 0.624
10:36 1019 30.09 848 25.04 15.6 60 64 8.9 48.1 15.83 0.623
10:37 1019 30.09 848 25.04 15.6 60.1 60 8.1 46.5 15.81 0.622
10:38 1019 30.09 848 25.04 15.6 60 61 8.2 46.7 15.74 0.62
10:39 1019 30.09 848 25.04 15.5 59.8 65 9.1 48.4 15.74 0.62
10:40 1019 30.09 848 25.04 15.6 60 64 8.9 48 15.84 0.624
10:41 1019 30.09 848 25.04 15.6 60.1 65 9.2 48.6 15.9 0.626
10:42 1019 30.09 848 25.04 15.7 60.2 61 8.2 46.7 15.99 0.63
10:43 1019 30.09 848 25.04 15.7 60.2 59 7.9 46.1 16.01 0.63
10:44 1019 30.09 848 25.04 15.7 60.2 60 8 46.4 15.97 0.629
10:45 1019 30.09 848 25.04 15.7 60.3 64 8.9 48.1 16.03 0.631
10:46 1019 30.09 848 25.04 15.8 60.4 63 8.7 47.7 16.1 0.634
10:47 1019 30.09 848 25.04 15.8 60.4 58 7.8 46 16.1 0.634
10:48 1019 30.09 848 25.04 15.8 60.5 61 8.3 46.9 16.15 0.636
10:49 1019 30.09 848 25.04 15.9 60.7 59 7.9 46.3 16.16 0.636
10:50 1019 30.09 848 25.04 15.9 60.7 59 8 46.3 16.12 0.635
10:51 1019 30.09 848 25.04 15.9 60.6 64 9.3 48.7 16.06 0.632
10:52 1019 30.09 848 25.04 15.8 60.5 59 8 46.4 16.05 0.632
10:53 1019 30.09 848 25.04 15.8 60.4 58 7.7 45.8 15.92 0.627
10:54 1019 30.09 848 25.04 15.8 60.4 59 7.9 46.2 15.86 0.624
10:55 1019 30.09 848 25.04 15.7 60.3 62 8.4 47.2 15.85 0.624
10:56 1019 30.09 848 25.04 15.7 60.2 62 8.5 47.4 15.86 0.624
10:57 1019 30.09 848 25.04 15.7 60.2 60 8.1 46.6 15.86 0.624
10:58 1019 30.09 848 25.04 15.6 60.1 65 9.1 48.3 15.79 0.622
10:59 1019 30.09 848 25.04 15.6 60.1 62 8.3 47 15.77 0.621
11:00 1019 30.09 848 25.04 15.6 60 61 8.2 46.7 15.71 0.619
11:01 1019 30.09 848 25.04 15.5 59.9 60 7.8 46 15.68 0.617
11:02 1019 30.09 848 25.04 15.5 59.9 64 8.9 48 15.64 0.616
11:03 1019 30.09 848 25.04 15.5 60 65 9 48.2 15.76 0.62
11:04 1019 30.09 848 25.04 15.5 60 67 9.6 49.2 15.85 0.624
11:05 1019 30.09 848 25.04 15.7 60.3 66 9.6 49.2 16 0.63
11:06 1019 30.09 848 25.04 15.8 60.4 67 9.7 49.5 16.02 0.631
11:07 1019 30.09 848 25.04 15.8 60.4 62 8.6 47.5 16.02 0.631
11:08 1019 30.09 848 25.04 15.8 60.4 65 9.2 48.6 15.95 0.628
11:09 1019 30.09 848 25.04 15.6 60.2 66 9.4 49 15.9 0.626
11:10 1019 30.09 848 25.04 15.7 60.2 63 8.7 47.7 15.93 0.627
11:11 1019 30.09 848 25.04 15.7 60.2 63 8.7 47.7 15.89 0.626
11:12 1019 30.09 848 25.04 15.6 60.1 65 9 48.3 15.78 0.621
11:13 1019 30.09 848 25.04 15.6 60 65 9.2 48.5 15.83 0.623
11:14 1019 30.09 848 25.04 15.6 60 65 9.1 48.5 15.79 0.622
11:15 1019 30.09 848 25.04 15.5 60 61 8.2 46.8 15.76 0.62
11:16 1019 30.09 848 25.04 15.5 59.8 64 8.7 47.6 15.68 0.617
11:17 1019 30.09 848 25.04 15.4 59.8 64 8.7 47.7 15.68 0.617
11:18 1019 30.09 848 25.04 15.4 59.8 64 8.8 47.8 15.68 0.617
11:19 1019 30.09 848 25.04 15.5 59.9 65 8.9 48.1 15.74 0.62
11:20 1019 30.09 848 25.04 15.5 59.9 65 8.9 48.1 15.74 0.62
11:21 1019 30.09 848 25.04 15.5 60 63 8.5 47.3 15.78 0.621
11:22 1019 30.09 848 25.04 15.5 60 62 8.3 46.9 15.8 0.622
11:23 1019 30.09 848 25.04 15.5 59.9 64 8.7 47.7 15.77 0.621
11:24 1019 30.09 848 25.04 15.5 60 64 8.9 48.1 15.76 0.62
11:25 1019 30.09 848 25.04 15.6 60 65 9 48.2 15.77 0.621
11:26 1019 30.09 848 25.04 15.6 60 61 8.1 46.5 15.73 0.619
11:27 1019 30.09 848 25.04 15.5 60 61 8.2 46.8 15.64 0.616
11:28 1019 30.09 848 25.04 15.4 59.8 63 8.6 47.4 15.6 0.614
11:29 1019 30.09 848 25.04 15.4 59.7 63 8.4 47.2 15.61 0.615
11:30 1019 30.09 848 25.04 15.4 59.8 65 8.8 47.9 15.65 0.616
11:31 1019 30.09 848 25.04 15.5 59.9 66 9.3 48.7 15.72 0.619
11:32 1019 30.09 848 25.04 15.6 60.1 60 7.9 46.3 15.85 0.624
11:33 1019 30.09 848 25.04 15.6 60 63 8.7 47.6 15.86 0.624
11:34 1019 30.09 848 25.04 15.6 60.2 64 8.8 47.9 15.97 0.629
11:35 1019 30.09 848 25.04 15.7 60.3 59 7.9 46.2 16 0.63
11:36 1019 30.09 848 25.04 15.7 60.2 60 8 46.4 15.94 0.628
11:37 1019 30.09 848 25.04 15.6 60.1 59 7.7 45.9 15.88 0.625
11:38 1019 30.09 848 25.04 15.6 60.1 65 9.2 48.5 15.84 0.624
11:39 1019 30.09 848 25.04 15.6 60.1 63 8.6 47.5 15.9 0.626
11:40 1019 30.09 848 25.04 15.7 60.3 58 7.5 45.5 15.94 0.628
11:41 1019 30.09 848 25.04 15.7 60.3 60 8 46.4 15.93 0.627
11:42 1019 30.09 848 25.04 15.8 60.4 60 8 46.5 15.96 0.628
11:43 1019 30.09 848 25.04 15.8 60.4 60 8.1 46.6 16.01 0.63
11:44 1019 30.09 848 25.04 15.8 60.4 62 8.7 47.6 16.05 0.632
11:45 1019 30.09 848 25.04 15.8 60.5 61 8.3 46.9 16.08 0.633
11:46 1019 30.09 848 25.04 15.9 60.6 61 8.5 47.3 16.11 0.634
11:47 1019 30.09 848 25.04 15.9 60.6 62 8.6 47.5 16.18 0.637
11:48 1019 30.09 848 25.04 16 60.7 60 8.3 47 16.19 0.637
11:49 1019 30.09 848 25.04 16 60.7 59 8.2 46.7 16.16 0.636
11:50 1019 30.09 848 25.04 15.9 60.7 59 8 46.4 16.2 0.638
11:51 1019 30.09 848 25.04 16 60.8 61 8.6 47.5 16.28 0.641
11:52 1019 30.09 848 25.04 16 60.9 59 8.1 46.6 16.31 0.642
11:53 1019 30.09 848 25.04 16.1 60.9 61 8.5 47.4 16.33 0.643
11:54 1019 30.09 848 25.04 16.1 60.9 57 7.7 45.9 16.32 0.643
11:55 1019 30.09 848 25.04 16.1 61 64 9.4 49 16.39 0.645
11:56 1019 30.09 848 25.04 16.3 61.3 59 8.3 46.9 16.64 0.655
11:57 1019 30.09 848 25.04 16.5 61.6 56 7.8 46.1 16.73 0.659
11:58 1019 30.09 848 25.04 16.6 61.9 58 8.5 47.3 16.86 0.664
11:59 1019 30.09 848 25.04 16.6 61.9 53 7.2 44.9 16.86 0.664
12:00 1019 30.09 848 25.04 16.6 61.9 58 8.3 46.9 16.81 0.662
12:01 1019 30.09 848 25.04 16.7 62 57 8.2 46.7 16.87 0.664
12:02 1019 30.09 848 25.04 16.6 61.8 56 7.9 46.2 16.82 0.662
12:03 1019 30.09 848 25.04 16.6 61.9 60 8.9 48.1 16.79 0.661
12:04 1019 30.09 848 25.04 16.6 62 58 8.5 47.2 16.89 0.665
12:05 1019 30.09 848 25.04 16.7 62 61 9.2 48.5 16.92 0.666
12:06 1019 30.09 848 25.04 16.7 62.1 58 8.5 47.3 16.95 0.667
12:07 1019 30.09 848 25.04 16.8 62.2 61 9.4 48.9 16.9 0.665
12:08 1019 30.09 848 25.04 16.8 62.2 56 8 46.4 17.01 0.67
12:09 1019 30.09 848 25.04 16.8 62.3 64 10.1 50.3 17.11 0.674
12:10 1019 30.09 848 25.04 16.9 62.5 59 9 48.1 17.25 0.679
12:11 1019 30.09 848 25.04 17 62.6 62 9.8 49.6 17.35 0.683
12:12 1019 30.09 848 25.04 17.1 62.9 56 8.5 47.3 17.46 0.687
12:13 1019 30.09 848 25.04 17.2 62.9 57 8.6 47.5 17.42 0.686
12:14 1019 30.09 848 25.04 17.1 62.8 60 9.4 48.8 17.34 0.683
12:15 1019 30.09 848 25.04 17.1 62.8 58 8.8 47.9 17.33 0.682
12:16 1019 30.09 848 25.04 17.2 62.9 55 8.2 46.7 17.33 0.682
12:17 1019 30.09 848 25.04 17.2 62.9 57 8.6 47.4 17.37 0.684
12:18 1019 30.09 848 25.04 17.1 62.9 51 7.1 44.9 17.29 0.681
12:19 1018 30.06 848 25.04 17.1 62.7 54 7.7 45.9 17.12 0.674
12:20 1018 30.06 848 25.04 17.1 62.7 57 8.6 47.4 17.18 0.676
12:21 1018 30.06 848 25.04 17 62.5 57 8.5 47.3 17.14 0.675
12:22 1018 30.06 848 25.04 16.9 62.4 56 8 46.5 17.1 0.673
12:23 1018 30.06 848 25.04 16.9 62.5 58 8.7 47.7 17.22 0.678
12:24 1018 30.06 848 25.04 17.1 62.7 56 8.3 46.9 17.37 0.684
12:25 1018 30.06 848 25.04 17.3 63.1 52 7.4 45.2 17.51 0.689
12:26 1018 30.06 848 25.04 17.5 63.5 53 7.9 46.3 17.69 0.696
12:27 1018 30.06 848 25.04 17.6 63.6 59 9.5 49.1 17.85 0.703
12:28 1018 30.06 848 25.04 17.7 63.8 51 7.7 45.8 18.01 0.709
12:29 1018 30.06 848 25.04 17.7 63.8 55 8.5 47.4 18.06 0.711
12:30 1018 30.06 848 25.04 17.6 63.6 57 8.9 48.1 17.9 0.705
12:31 1018 30.06 848 25.04 17.5 63.5 57 9.1 48.4 17.83 0.702
12:32 1018 30.06 848 25.04 17.5 63.4 54 8.2 46.7 17.81 0.701
12:33 1018 30.06 847 25.01 17.6 63.6 56 8.8 47.9 17.88 0.704
12:34 1018 30.06 848 25.04 17.7 63.9 52 7.9 46.3 17.99 0.708
12:35 1018 30.06 847 25.01 17.7 63.9 55 8.6 47.4 18.02 0.709
12:36 1018 30.06 847 25.01 17.8 64 57 9.1 48.4 18.04 0.71
12:37 1018 30.06 848 25.04 17.7 63.9 54 8.3 47 17.91 0.705
12:38 1018 30.06 847 25.01 17.6 63.6 57 9 48.1 17.79 0.7
12:39 1018 30.06 847 25.01 17.5 63.5 58 9.1 48.5 17.73 0.698
12:40 1018 30.06 847 25.01 17.5 63.4 55 8.4 47.1 17.72 0.698
12:41 1018 30.06 847 25.01 17.5 63.5 55 8.5 47.3 17.82 0.702
12:42 1018 30.06 847 25.01 17.5 63.6 52 7.6 45.8 17.79 0.7
12:43 1018 30.06 847 25.01 17.5 63.4 59 9.4 48.9 17.83 0.702
12:44 1018 30.06 847 25.01 17.6 63.6 51 7.5 45.6 17.86 0.703
12:45 1018 30.06 847 25.01 17.6 63.6 57 9 48.2 17.77 0.7
12:46 1018 30.06 847 25.01 17.5 63.5 55 8.6 47.5 17.7 0.697
12:47 1018 30.06 847 25.01 17.5 63.4 58 9.2 48.5 17.71 0.697
12:48 1018 30.06 847 25.01 17.6 63.6 55 8.5 47.2 17.84 0.702
12:49 1018 30.06 847 25.01 17.6 63.7 57 9 48.2 17.9 0.705
12:50 1018 30.06 847 25.01 17.7 63.8 53 8.1 46.7 17.91 0.705
12:51 1018 30.06 847 25.01 17.6 63.8 51 7.6 45.7 17.92 0.706
12:52 1018 30.06 847 25.01 17.6 63.7 51 7.4 45.3 17.89 0.704
12:53 1018 30.06 847 25.01 17.6 63.7 52 7.8 46 17.89 0.704
12:54 1018 30.06 847 25.01 17.6 63.7 53 8 46.3 17.9 0.705
12:55 1018 30.06 847 25.01 17.6 63.7 54 8.2 46.7 17.9 0.705
12:56 1018 30.06 847 25.01 17.6 63.7 50 7.1 44.8 17.94 0.706
12:57 1018 30.06 847 25.01 17.8 64 49 6.9 44.4 18.12 0.713
12:58 1018 30.06 847 25.01 17.9 64.2 52 8 46.4 18.28 0.72
12:59 1018 30.06 847 25.01 18.1 64.5 48 7.1 44.8 18.41 0.725
13:00 1018 30.06 847 25.01 18.2 64.8 49 7.3 45.1 18.57 0.731
13:01 1018 30.06 847 25.01 18.3 65 47 6.8 44.3 18.7 0.736
13:02 1018 30.06 847 25.01 18.4 65.1 50 7.9 46.3 18.84 0.742
13:03 1018 30.06 847 25.01 18.6 65.5 51 8.3 46.9 19.02 0.749
13:04 1018 30.06 847 25.01 18.9 66.1 45 7 44.6 19.3 0.76
13:05 1018 30.06 847 25.01 19.1 66.5 48 8.1 46.6 19.47 0.767
13:06 1018 30.06 847 25.01 19.2 66.6 47 7.7 45.8 19.4 0.764
13:07 1018 30.06 847 25.01 19.2 66.5 48 8.1 46.5 19.27 0.759
13:08 1018 30.06 847 25.01 19.1 66.4 52 9 48.3 19.2 0.756
13:09 1018 30.06 847 25.01 19 66.3 47 7.5 45.6 19.08 0.751
13:10 1018 30.06 847 25.01 18.9 66 44 6.5 43.8 19.02 0.749
13:11 1018 30.06 847 25.01 18.7 65.7 45 6.6 43.8 18.96 0.746
13:12 1018 30.06 847 25.01 18.7 65.6 51 8.4 47.1 19.01 0.748
13:13 1018 30.06 847 25.01 18.8 65.8 45 6.6 43.8 19.1 0.752
13:14 1018 30.06 847 25.01 18.9 66.1 49 8 46.4 19.19 0.756
13:15 1018 30.06 847 25.01 19 66.2 49 8.1 46.5 19.22 0.757
13:16 1018 30.06 847 25.01 19.1 66.4 45 6.9 44.5 19.4 0.764
13:17 1018 30.06 847 25.01 19.2 66.6 45 7.1 44.8 19.52 0.769
13:18 1018 30.06 847 25.01 19.3 66.7 47 8 46.3 19.52 0.769
13:19 1018 30.06 847 25.01 19.4 66.8 44 7 44.7 19.56 0.77
13:20 1018 30.06 847 25.01 19.5 67.1 42 6.4 43.5 19.67 0.774
13:21 1018 30.06 847 25.01 19.6 67.2 45 7.5 45.6 19.78 0.779
13:22 1018 30.06 847 25.01 19.7 67.4 47 8.1 46.6 19.9 0.783
13:23 1018 30.06 847 25.01 19.7 67.5 43 7 44.6 20.01 0.788
13:24 1018 30.06 847 25.01 19.7 67.5 41 6.2 43.1 20.04 0.789
13:25 1018 30.06 847 25.01 19.5 67.1 45 7.5 45.4 19.84 0.781
13:26 1018 30.06 847 25.01 19.5 67.1 46 7.7 45.8 19.92 0.784
13:27 1018 30.06 847 25.01 19.6 67.2 45 7.4 45.3 19.92 0.784
13:28 1018 30.06 847 25.01 19.5 67.2 42 6.4 43.5 19.85 0.781
13:29 1018 30.06 847 25.01 19.5 67.1 46 7.7 45.8 19.87 0.782
13:30 1018 30.06 847 25.01 19.7 67.4 51 9.3 48.7 20.07 0.79
13:31 1018 30.06 847 25.01 19.9 67.8 44 7.5 45.5 20.19 0.795
13:32 1018 30.06 847 25.01 19.8 67.7 50 9.2 48.5 20.13 0.793
13:33 1018 30.06 847 25.01 19.8 67.6 48 8.5 47.3 20.08 0.791
13:34 1018 30.06 847 25.01 19.9 67.8 46 7.9 46.3 20.12 0.792
13:35 1018 30.06 847 25.01 20 67.9 43 7 44.6 20.2 0.795
13:36 1018 30.06 847 25.01 20 67.9 44 7.4 45.3 20.14 0.793
13:37 1018 30.06 847 25.01 20 67.9 47 8.4 47.1 20.28 0.798
13:38 1018 30.06 847 25.01 20 68 47 8.6 47.5 20.24 0.797
13:39 1018 30.06 847 25.01 19.9 67.7 43 7.2 44.9 20.17 0.794
13:40 1018 30.06 847 25.01 19.8 67.6 46 8.1 46.5 20.09 0.791
13:41 1018 30.06 847 25.01 19.8 67.6 46 7.8 46.1 20.15 0.793
13:42 1018 30.06 847 25.01 19.9 67.8 43 7.1 44.7 20.2 0.795
13:43 1018 30.06 847 25.01 20 67.9 45 7.7 45.9 20.19 0.795
13:44 1018 30.06 847 25.01 19.9 67.8 48 8.8 47.9 20.22 0.796
13:45 1018 30.06 847 25.01 19.8 67.7 48 8.5 47.3 20.18 0.794
13:46 1018 30.06 847 25.01 19.9 67.9 42 6.7 44 20.28 0.798
13:47 1018 30.06 847 25.01 19.9 67.8 41 6.4 43.4 20.28 0.798
13:48 1018 30.06 847 25.01 19.7 67.4 44 7.4 45.2 20.05 0.789
13:49 1018 30.06 847 25.01 19.5 67.1 45 7.4 45.3 19.93 0.785
13:50 1018 30.06 847 25.01 19.5 67.1 44 7 44.6 19.93 0.785
13:51 1018 30.06 847 25.01 19.5 67.1 52 9.5 49.1 19.94 0.785
13:52 1018 30.06 847 25.01 19.6 67.2 47 8 46.4 20.04 0.789
13:53 1018 30.06 847 25.01 19.6 67.4 41 6.3 43.4 20.06 0.79
13:54 1018 30.06 847 25.01 19.6 67.4 44 7.1 44.7 20.11 0.792
13:55 1018 30.06 847 25.01 19.7 67.5 43 6.8 44.3 20.19 0.795
13:56 1018 30.06 847 25.01 19.8 67.7 40 6 42.8 20.31 0.8
13:57 1018 30.06 847 25.01 19.9 67.7 40 5.9 42.6 20.24 0.797
13:58 1017 30.03 847 25.01 19.8 67.7 44 7.5 45.5 20.25 0.797
13:59 1017 30.03 847 25.01 19.9 67.7 43 7.2 45 20.21 0.796
14:00 1017 30.03 847 25.01 19.9 67.9 44 7.5 45.4 20.23 0.796
14:01 1017 30.03 847 25.01 19.9 67.8 45 7.9 46.2 20.24 0.797
14:02 1017 30.03 847 25.01 19.9 67.9 45 7.7 45.8 20.29 0.799
14:03 1017 30.03 847 25.01 20 68 44 7.4 45.4 20.27 0.798
14:04 1017 30.03 847 25.01 20 68.1 42 6.9 44.4 20.27 0.798
14:05 1017 30.03 847 25.01 20 68.1 40 6.4 43.4 20.35 0.801
14:06 1017 30.03 847 25.01 20 68 43 7.3 45.1 20.4 0.803
14:07 1017 30.03 847 25.01 20.1 68.2 44 7.7 45.9 20.59 0.811
14:08 1017 30.03 847 25.01 20.3 68.5 43 7.3 45.1 20.72 0.816
14:09 1017 30.03 847 25.01 20.2 68.4 45 8 46.4 20.72 0.816
14:10 1017 30.03 847 25.01 20.3 68.5 47 8.8 47.8 20.82 0.82
14:11 1017 30.03 847 25.01 20.3 68.6 44 8 46.4 20.86 0.821
14:12 1017 30.03 846 24.98 20.4 68.6 44 8 46.4 20.9 0.823
14:13 1017 30.03 846 24.98 20.5 68.9 54 11.1 51.9 21 0.827
14:14 1017 30.03 846 24.98 20.6 69.1 42 7.5 45.4 21.12 0.831
14:15 1017 30.03 846 24.98 20.9 69.6 49 10 50.1 21.3 0.839
14:16 1017 30.03 846 24.98 21.1 69.9 44 8.5 47.3 21.45 0.844
14:17 1017 30.03 846 24.98 21.2 70.2 48 10 50 21.54 0.848
14:18 1017 30.03 846 24.98 21.3 70.3 47 9.5 49.1 21.68 0.854
14:19 1017 30.03 846 24.98 21.4 70.5 41 7.7 45.8 21.86 0.861
14:20 1017 30.03 846 24.98 21.4 70.6 42 8.2 46.7 21.9 0.862
14:21 1017 30.03 846 24.98 21.5 70.7 44 8.9 48 21.92 0.863
14:22 1017 30.03 846 24.98 21.4 70.6 45 9.2 48.5 21.96 0.865
14:23 1017 30.03 846 24.98 21.6 70.9 45 9.4 48.9 21.95 0.864
14:24 1017 30.03 846 24.98 21.6 70.9 40 7.7 45.9 21.91 0.863
14:25 1017 30.03 846 24.98 21.3 70.4 41 7.8 46 21.64 0.852
14:26 1017 30.03 846 24.98 21 69.8 38 6.4 43.5 21.35 0.841
14:27 1017 30.03 846 24.98 20.9 69.6 42 7.8 46 21.28 0.838
14:28 1017 30.03 846 24.98 20.9 69.6 43 8.1 46.5 21.34 0.84
14:29 1017 30.03 846 24.98 20.9 69.6 50 10.2 50.3 21.43 0.844
14:30 1017 30.03 846 24.98 21.1 69.9 51 10.6 51.1 21.49 0.846
14:31 1017 30.03 846 24.98 21.1 70 40 7.2 44.9 21.49 0.846
14:32 1017 30.03 846 24.98 21.1 69.9 41 7.5 45.5 21.41 0.843
14:33 1017 30.03 846 24.98 21 69.8 41 7.5 45.5 21.35 0.841
14:34 1017 30.03 846 24.98 21 69.7 42 7.7 45.9 21.34 0.84
14:35 1017 30.03 846 24.98 21 69.7 37 5.8 42.5 21.33 0.84
14:36 1017 30.03 846 24.98 20.9 69.6 42 7.5 45.6 21.26 0.837
14:37 1017 30.03 846 24.98 20.9 69.6 44 8.3 47 21.3 0.839
14:38 1017 30.03 846 24.98 20.9 69.7 46 8.9 48.1 21.37 0.841
14:39 1017 30.03 846 24.98 21 69.8 46 9.1 48.4 21.38 0.842
14:40 1017 30.03 846 24.98 21.1 69.9 44 8.4 47.1 21.47 0.845
14:41 1017 30.03 846 24.98 21.2 70.2 45 9 48.3 21.64 0.852
14:42 1017 30.03 846 24.98 21.3 70.4 41 7.9 46.2 21.67 0.853
14:43 1017 30.03 846 24.98 21.3 70.3 41 7.5 45.6 21.66 0.853
14:44 1017 30.03 846 24.98 21.3 70.3 42 8.1 46.5 21.63 0.852
14:45 1017 30.03 846 24.98 21.3 70.3 40 7.4 45.3 21.6 0.85
14:46 1017 30.03 846 24.98 21.4 70.5 37 6.2 43.2 21.69 0.854
14:47 1017 30.03 846 24.98 21.5 70.6 39 7.2 44.9 21.68 0.854
14:48 1017 30.03 846 24.98 21.6 70.8 37 6.4 43.5 21.72 0.855
14:49 1017 30.03 846 24.98 21.5 70.7 41 7.7 45.9 21.66 0.853
14:50 1017 30.03 846 24.98 21.4 70.5 38 6.7 44 21.5 0.846
14:51 1017 30.03 846 24.98 21.2 70.2 40 7.1 44.7 21.42 0.843
14:52 1017 30.03 846 24.98 21.3 70.3 41 7.7 45.8 21.53 0.848
14:53 1017 30.03 846 24.98 21.4 70.5 48 10.1 50.2 21.67 0.853
14:54 1017 30.03 846 24.98 21.6 70.8 47 10.1 50.2 21.85 0.86
14:55 1017 30.03 846 24.98 21.7 71.1 41 7.9 46.2 21.96 0.865
14:56 1017 30.03 846 24.98 21.7 71 46 9.7 49.5 21.91 0.863
14:57 1017 30.03 846 24.98 21.6 70.9 42 8.3 46.9 21.92 0.863
14:58 1017 30.03 846 24.98 21.5 70.7 40 7.3 45.2 21.78 0.857
14:59 1017 30.03 846 24.98 21.4 70.5 40 7.4 45.4 21.71 0.855
15:00 1017 30.03 846 24.98 21.3 70.3 42 7.9 46.1 21.58 0.85
15:01 1017 30.03 846 24.98 21.1 69.9 42 7.7 45.9 21.31 0.839
15:02 1017 30.03 846 24.98 20.7 69.3 47 9.2 48.6 20.99 0.826
15:03 1017 30.03 846 24.98 20.5 68.9 43 7.7 45.9 20.83 0.82
15:04 1017 30.03 846 24.98 20.5 68.8 46 8.5 47.4 20.74 0.817
15:05 1017 30.03 846 24.98 20.6 69.1 51 10.3 50.5 20.87 0.822
15:06 1017 30.03 846 24.98 20.9 69.6 42 7.7 45.9 21.2 0.835
15:07 1017 30.03 846 24.98 21.3 70.3 41 7.7 45.9 21.52 0.847
15:08 1017 30.03 846 24.98 21.4 70.5 43 8.6 47.4 21.65 0.852
15:09 1017 30.03 846 24.98 21.5 70.7 47 9.8 49.7 21.81 0.859
15:10 1017 30.03 846 24.98 21.6 71 40 7.5 45.6 21.88 0.861
15:11 1017 30.03 846 24.98 21.6 71 39 7.3 45.1 21.91 0.863
15:12 1017 30.03 846 24.98 21.7 71.1 43 8.8 47.8 21.89 0.862
15:13 1017 30.03 846 24.98 21.8 71.2 36 6.1 43 21.94 0.864
15:14 1017 30.03 846 24.98 21.7 71.1 44 9 48.2 21.85 0.86
15:15 1017 30.03 846 24.98 21.7 71.1 39 7.3 45.1 21.86 0.861
15:16 1017 30.03 846 24.98 21.9 71.5 48 10.6 51 22.03 0.867
15:17 1017 30.03 846 24.98 21.9 71.4 41 8.2 46.7 22.08 0.869
15:18 1017 30.03 846 24.98 21.6 70.9 35 5.9 42.6 21.94 0.864
15:19 1017 30.03 846 24.98 21.4 70.5 39 7 44.6 21.61 0.851
15:20 1017 30.03 846 24.98 21.1 70 45 8.9 48 21.36 0.841
15:21 1017 30.03 846 24.98 21 69.7 40 6.8 44.3 21.29 0.838
15:22 1017 30.03 846 24.98 21 69.8 41 7.6 45.6 21.37 0.841
15:23 1017 30.03 846 24.98 21.2 70.1 37 6 42.8 21.5 0.846
15:24 1017 30.03 846 24.98 21.4 70.4 43 8.3 47 21.73 0.856
15:25 1017 30.03 846 24.98 21.4 70.4 46 9.3 48.7 21.74 0.856
15:26 1017 30.03 846 24.98 21.1 70 41 7.4 45.3 21.53 0.848
15:27 1016 30 846 24.98 21 69.7 42 7.7 45.8 21.35 0.841
15:28 1017 30.03 846 24.98 20.9 69.7 41 7.3 45.1 21.33 0.84
15:29 1017 30.03 846 24.98 21 69.9 44 8.6 47.5 21.45 0.844
15:30 1017 30.03 846 24.98 21.2 70.2 43 8.1 46.6 21.67 0.853
15:31 1017 30.03 846 24.98 21.4 70.5 42 8 46.4 21.82 0.859
15:32 1017 30.03 846 24.98 21.4 70.4 38 6.5 43.7 21.66 0.853
15:33 1016 30 846 24.98 21.2 70.1 47 9.6 49.3 21.5 0.846
15:34 1016 30 846 24.98 21.2 70.2 39 7 44.6 21.52 0.847
15:35 1016 30 846 24.98 21.2 70.1 43 8.1 46.6 21.51 0.847
15:36 1016 30 846 24.98 21.1 69.9 44 8.7 47.6 21.35 0.841
15:37 1016 30 846 24.98 20.7 69.3 41 7.1 44.8 21.04 0.828
15:38 1016 30 846 24.98 20.5 68.8 37 5.5 42 20.76 0.817
15:39 1016 30 846 24.98 20.3 68.5 38 5.7 42.3 20.59 0.811
15:40 1016 30 846 24.98 20.2 68.3 39 5.9 42.6 20.52 0.808
15:41 1016 30 846 24.98 20.2 68.3 45 7.8 46.1 20.51 0.807
15:42 1016 30 846 24.98 20 68.1 47 8.6 47.4 20.43 0.804
15:43 1016 30 846 24.98 19.9 67.8 43 7 44.6 20.29 0.799
15:44 1016 30 846 24.98 19.8 67.7 43 7.2 44.9 20.2 0.795
15:45 1016 30 846 24.98 19.8 67.7 43 7 44.6 20.17 0.794
15:46 1016 30 846 24.98 19.9 67.8 46 8.2 46.7 20.26 0.798
15:47 1016 30 846 24.98 19.9 67.8 44 7.5 45.4 20.28 0.798
15:48 1016 30 846 24.98 19.9 67.8 51 9.5 49.1 20.27 0.798
15:49 1016 30 846 24.98 19.8 67.7 38 5.3 41.6 20.25 0.797
15:50 1016 30 846 24.98 19.9 67.8 51 9.7 49.4 20.29 0.799
15:51 1016 30 846 24.98 20 68.1 46 8.2 46.8 20.44 0.805
15:52 1016 30 845 24.95 20.1 68.2 49 9.3 48.7 20.54 0.809
15:53 1016 30 845 24.95 20.3 68.5 42 7.1 44.9 20.65 0.813
15:54 1016 30 845 24.95 20.6 69 46 8.7 47.7 20.9 0.823
15:55 1016 30 845 24.95 21.1 69.9 44 8.5 47.2 21.38 0.842
15:56 1016 30 845 24.95 21.5 70.7 40 7.5 45.5 21.76 0.857
15:57 1016 30 845 24.95 21.8 71.2 42 8.5 47.3 22.02 0.867
15:58 1016 30 845 24.95 21.9 71.5 40 7.7 45.9 22.19 0.874
15:59 1016 30 845 24.95 21.9 71.4 39 7.3 45.2 22.02 0.867
16:00 1016 30 845 24.95 21.6 70.9 41 8 46.5 21.78 0.857
16:01 1016 30 845 24.95 21.3 70.3 36 5.8 42.5 21.53 0.848
16:02 1016 30 845 24.95 21.1 70 43 8.1 46.5 21.32 0.839
16:03 1016 30 845 24.95 21 69.8 38 6.3 43.3 21.24 0.836
16:04 1016 30 845 24.95 21 69.9 39 6.8 44.2 21.33 0.84
16:05 1016 30 845 24.95 20.9 69.7 40 7.1 44.8 21.25 0.837
16:06 1016 30 845 24.95 20.9 69.5 36 5.4 41.6 21.2 0.835
16:07 1016 30 845 24.95 20.8 69.4 40 7 44.5 21.18 0.834
16:08 1016 30 845 24.95 20.7 69.3 42 7.6 45.7 21.09 0.83
16:09 1016 30 845 24.95 20.6 69.1 42 7.4 45.4 20.94 0.824
16:10 1016 30 845 24.95 20.6 69 41 7.1 44.7 20.89 0.822
16:11 1016 30 845 24.95 20.6 69.1 45 8.4 47.2 20.97 0.826
16:12 1016 30 845 24.95 20.7 69.3 42 7.6 45.7 21.08 0.83
16:13 1016 30 845 24.95 20.8 69.4 41 7.1 44.9 21.09 0.83
16:14 1016 30 845 24.95 20.7 69.2 37 5.8 42.5 21.08 0.83
16:15 1016 30 845 24.95 20.7 69.2 44 8 46.4 21.01 0.827
16:16 1016 30 845 24.95 20.8 69.4 40 6.8 44.3 21.14 0.832
16:17 1016 30 845 24.95 21 69.9 45 8.8 47.8 21.42 0.843
16:18 1016 30 845 24.95 21.4 70.6 33 4.8 40.7 21.79 0.858
16:19 1016 30 845 24.95 21.6 70.8 32 4.5 40 21.9 0.862
16:20 1016 30 845 24.95 21.5 70.7 39 7.2 44.9 21.87 0.861
16:21 1016 30 845 24.95 21.4 70.5 44 8.8 47.8 21.78 0.857
16:22 1016 30 845 24.95 21.2 70.2 41 7.6 45.6 21.6 0.85
16:23 1016 30 845 24.95 21 69.7 42 7.7 45.8 21.31 0.839
16:24 1016 30 845 24.95 20.7 69.2 43 7.8 46 21.05 0.829
16:25 1016 30 845 24.95 20.6 69 45 8.4 47.1 20.92 0.824
16:26 1016 30 845 24.95 20.5 68.9 44 7.9 46.2 20.91 0.823
16:27 1016 30 845 24.95 20.5 68.9 47 9 48.2 20.86 0.821
16:28 1016 30 845 24.95 20.5 68.8 44 7.9 46.3 20.79 0.819
16:29 1016 30 845 24.95 20.4 68.7 44 7.7 45.9 20.77 0.818
16:30 1016 30 845 24.95 20.4 68.8 41 6.9 44.4 20.79 0.819
16:31 1016 30 845 24.95 20.5 68.9 43 7.6 45.7 20.82 0.82
16:32 1016 30 845 24.95 20.6 69.1 42 7.4 45.2 20.92 0.824
16:33 1016 30 845 24.95 20.7 69.3 42 7.6 45.7 21.07 0.83
16:34 1016 30 845 24.95 20.8 69.5 44 8.1 46.6 21.19 0.834
16:35 1016 30 845 24.95 20.9 69.6 44 8.4 47 21.2 0.835
16:36 1016 30 845 24.95 20.9 69.6 43 8.1 46.6 21.17 0.833
16:37 1016 30 845 24.95 20.8 69.5 41 7.4 45.3 21.14 0.832
16:38 1016 30 845 24.95 20.8 69.4 43 7.8 46.1 21.08 0.83
16:39 1016 30 845 24.95 20.7 69.2 40 6.9 44.3 21 0.827
16:40 1016 30 845 24.95 20.6 69.1 38 6.2 43.1 21 0.827
16:41 1016 30 845 24.95 20.6 69.1 43 7.9 46.3 20.99 0.826
16:42 1016 30 845 24.95 20.7 69.2 41 6.9 44.5 21.05 0.829
16:43 1016 30 845 24.95 20.7 69.3 39 6.4 43.5 21.13 0.832
16:44 1016 30 845 24.95 21.1 69.9 44 8.6 47.4 21.42 0.843
16:45 1016 30 845 24.95 21.4 70.5 44 8.8 47.8 21.77 0.857
16:46 1016 30 845 24.95 21.5 70.8 38 6.9 44.4 21.95 0.864
16:47 1016 30 845 24.95 21.6 70.8 41 8.1 46.5 21.97 0.865
16:48 1016 30 845 24.95 21.5 70.7 38 6.7 44.1 21.89 0.862
16:49 1016 30 845 24.95 21.2 70.2 37 6 42.8 21.62 0.851
16:50 1016 30 845 24.95 21 69.9 38 6.4 43.6 21.39 0.842
16:51 1016 30 845 24.95 20.9 69.5 44 8.2 46.8 21.26 0.837
16:52 1016 30 845 24.95 20.8 69.4 38 6 42.8 21.13 0.832
16:53 1016 30 845 24.95 21 69.7 40 7.1 44.7 21.35 0.841
16:54 1016 30 845 24.95 21.3 70.3 40 7.4 45.3 21.64 0.852
16:55 1016 30 845 24.95 21.5 70.7 41 7.7 45.9 21.88 0.861
16:56 1016 30 845 24.95 21.6 71 36 6 42.8 22.03 0.867
16:57 1016 30 845 24.95 21.8 71.2 41 8.2 46.8 22.17 0.873
16:58 1016 30 845 24.95 22 71.5 35 6.1 43 22.3 0.878
16:59 1016 30 845 24.95 22 71.5 38 7.3 45.2 22.35 0.88
17:00 1016 30 845 24.95 22.1 71.7 38 7.3 45.1 22.49 0.885
17:01 1016 30 845 24.95 22.1 71.8 34 5.9 42.6 22.51 0.886
17:02 1016 30 845 24.95 22.2 71.9 42 8.7 47.6 22.61 0.89
17:03 1016 30 845 24.95 22.2 71.9 41 8.5 47.3 22.65 0.892
17:04 1016 30 845 24.95 22.2 71.9 34 5.9 42.6 22.58 0.889
17:05 1016 30 845 24.95 22 71.5 36 6.5 43.7 22.33 0.879
17:06 1016 30 845 24.95 21.5 70.8 36 6 42.8 21.88 0.861
17:07 1016 30 845 24.95 21.1 70.1 37 6 42.8 21.47 0.845
17:08 1016 30 845 24.95 20.8 69.4 41 7.1 44.8 21.14 0.832
17:09 1016 30 845 24.95 20.4 68.7 41 6.9 44.4 20.82 0.82
17:10 1016 30 845 24.95 20.2 68.4 43 7.5 45.6 20.56 0.809
17:11 1016 30 845 24.95 20.1 68.1 43 7.2 44.9 20.48 0.806
17:12 1016 30 845 24.95 20.2 68.3 38 5.6 42.1 20.6 0.811
17:13 1016 30 845 24.95 20.3 68.5 42 7.1 44.8 20.68 0.814
17:14 1016 30 845 24.95 20.4 68.6 43 7.4 45.4 20.72 0.816
17:15 1016 30 845 24.95 20.3 68.5 43 7.4 45.3 20.72 0.816
17:16 1016 30 845 24.95 20.2 68.4 44 7.8 46.1 20.59 0.811
17:17 1016 30 845 24.95 20.1 68.2 44 7.7 45.8 20.54 0.809
17:18 1016 30 845 24.95 20 68.1 45 8 46.4 20.47 0.806
17:19 1016 30 845 24.95 20.1 68.1 44 7.6 45.7 20.47 0.806
17:20 1016 30 845 24.95 20 68 41 6.5 43.6 20.44 0.805
17:21 1016 30 845 24.95 20 68 37 5.1 41.3 20.4 0.803
17:22 1016 30 845 24.95 20 68.1 38 5.5 41.8 20.4 0.803
17:23 1016 30 845 24.95 20.1 68.1 40 6.1 43 20.45 0.805
17:24 1016 30 845 24.95 20 67.9 39 5.7 42.2 20.36 0.802
17:25 1016 30 845 24.95 19.8 67.6 42 6.7 44.1 20.15 0.793
17:26 1016 30 845 24.95 19.6 67.2 41 6.3 43.3 19.98 0.787
17:27 1016 30 845 24.95 19.4 66.9 45 7.4 45.4 19.77 0.778
17:28 1016 30 845 24.95 19.2 66.6 45 7.2 45 19.61 0.772
17:29 1016 30 845 24.95 19.1 66.3 47 7.5 45.5 19.45 0.766
17:30 1016 30 845 24.95 18.9 66.1 47 7.5 45.6 19.33 0.761
17:31 1016 30 845 24.95 18.9 65.9 47 7.4 45.4 19.21 0.756
17:32 1016 30 845 24.95 18.8 65.8 47 7.5 45.4 19.15 0.754
17:33 1016 30 845 24.95 18.7 65.6 48 7.7 45.9 19.08 0.751
17:34 1016 30 845 24.95 18.7 65.7 44 6.4 43.6 19.04 0.75
17:35 1016 30 845 24.95 18.8 65.8 46 7.2 44.9 19.1 0.752
17:36 1016 30 845 24.95 18.7 65.6 43 6.1 43 19.06 0.75
17:37 1016 30 845 24.95 18.7 65.7 47 7.2 44.9 19.13 0.753
17:38 1016 30 845 24.95 18.7 65.7 46 6.9 44.5 19.09 0.752
17:39 1016 30 845 24.95 18.6 65.5 46 7.1 44.7 19.02 0.749
17:40 1016 30 845 24.95 18.6 65.5 46 6.9 44.4 19.03 0.749
17:41 1016 30 845 24.95 18.6 65.6 47 7.3 45.1 19.04 0.75
17:42 1016 30 845 24.95 18.6 65.5 46 6.8 44.3 19.03 0.749
17:43 1016 30 845 24.95 18.7 65.6 47 7.2 45 19.08 0.751
17:44 1016 30 845 24.95 18.7 65.7 45 6.8 44.3 19.1 0.752
17:45 1016 30 845 24.95 18.7 65.7 47 7.3 45.2 19.11 0.752
17:46 1016 30 845 24.95 18.8 65.8 44 6.2 43.2 19.12 0.753
17:47 1016 30 845 24.95 18.8 65.8 48 7.5 45.6 19.14 0.754
17:48 1016 30 845 24.95 18.8 65.8 45 6.8 44.3 19.17 0.755
17:49 1016 30 845 24.95 18.8 65.8 45 6.8 44.2 19.11 0.752
17:50 1016 30 845 24.95 18.7 65.7 41 5.4 41.8 19.13 0.753
17:51 1016 30 845 24.95 18.9 65.9 41 5.4 41.7 19.24 0.757
17:52 1016 30 845 24.95 19 66.1 40 5.2 41.4 19.32 0.761
17:53 1016 30 845 24.95 19 66.1 41 5.7 42.3 19.32 0.761
17:54 1016 30 845 24.95 18.9 65.9 44 6.5 43.7 19.25 0.758
17:55 1016 30 845 24.95 18.8 65.8 45 6.6 43.9 19.19 0.756
17:56 1016 30 845 24.95 18.7 65.7 44 6.4 43.5 19.1 0.752
17:57 1016 30 845 24.95 18.7 65.6 47 7.2 45 19.06 0.75
17:58 1016 30 845 24.95 18.6 65.4 45 6.5 43.7 18.98 0.747
17:59 1016 30 845 24.95 18.5 65.3 48 7.3 45.1 18.9 0.744
18:00 1016 30 845 24.95 18.4 65.1 47 7.1 44.8 18.8 0.74
18:01 1016 30 845 24.95 18.3 64.9 49 7.4 45.4 18.67 0.735
18:02 1016 30 845 24.95 18.2 64.8 45 6.4 43.4 18.63 0.733
18:03 1016 30 845 24.95 18.3 65 45 6.3 43.4 18.69 0.736
18:04 1016 30 845 24.95 18.4 65.1 45 6.3 43.4 18.8 0.74
18:05 1016 30 845 24.95 18.5 65.3 44 6.2 43.2 18.86 0.743
18:06 1016 30 845 24.95 18.5 65.3 47 7 44.6 18.86 0.743
18:07 1016 30 845 24.95 18.4 65.2 46 6.7 44 18.81 0.741
18:08 1016 30 845 24.95 18.4 65.2 44 5.9 42.7 18.83 0.741
18:09 1016 30 845 24.95 18.5 65.3 46 6.7 44.1 18.85 0.742
18:10 1016 30 845 24.95 18.5 65.4 44 6.2 43.1 18.9 0.744
18:11 1016 30 845 24.95 18.6 65.4 46 7 44.6 18.95 0.746
18:12 1016 30 845 24.95 18.5 65.3 46 6.7 44 18.9 0.744
18:13 1016 30 845 24.95 18.5 65.3 46 6.9 44.4 18.88 0.743
18:14 1016 30 845 24.95 18.5 65.4 46 6.8 44.2 18.89 0.744
18:15 1016 30 845 24.95 18.6 65.4 46 6.9 44.5 18.98 0.747
18:16 1016 30 845 24.95 18.6 65.5 48 7.6 45.7 19 0.748
18:17 1016 30 845 24.95 18.6 65.5 47 7.4 45.2 18.97 0.747
18:18 1016 30 846 24.98 18.6 65.4 50 8 46.3 18.98 0.747
18:19 1016 30 846 24.98 18.6 65.4 46 6.9 44.4 19.01 0.748
18:20 1016 30 846 24.98 18.6 65.5 47 7.2 45 19.04 0.75
18:21 1016 30 846 24.98 18.7 65.6 46 6.9 44.4 19.04 0.75
18:22 1016 30 846 24.98 18.7 65.7 46 7.1 44.8 19.08 0.751
18:23 1016 30 846 24.98 18.7 65.6 47 7.3 45.2 19.05 0.75
18:24 1016 30 846 24.98 18.7 65.6 49 8 46.3 19.02 0.749
18:25 1016 30 846 24.98 18.7 65.6 49 7.9 46.3 19.03 0.749
18:26 1017 30.03 846 24.98 18.7 65.6 47 7.2 44.9 19.04 0.75
18:27 1016 30 846 24.98 18.6 65.4 46 6.8 44.3 18.95 0.746
18:28 1017 30.03 846 24.98 18.4 65.2 45 6.6 43.8 18.8 0.74
18:29 1017 30.03 846 24.98 18.3 64.9 47 7 44.6 18.65 0.734
18:30 1017 30.03 846 24.98 18.1 64.5 48 7.1 44.8 18.49 0.728
18:31 1017 30.03 846 24.98 18 64.4 47 6.8 44.2 18.38 0.724
18:32 1017 30.03 846 24.98 17.9 64.3 49 7 44.7 18.33 0.722
18:33 1017 30.03 846 24.98 17.9 64.1 51 7.8 46.1 18.24 0.718
18:34 1017 30.03 846 24.98 17.8 64 49 7.2 44.9 18.16 0.715
18:35 1017 30.03 846 24.98 17.8 64 48 6.8 44.3 18.12 0.713
18:36 1017 30.03 846 24.98 17.7 63.9 51 7.6 45.6 18.1 0.713
18:37 1017 30.03 846 24.98 17.7 63.8 50 7.2 45 18.04 0.71
18:38 1017 30.03 846 24.98 17.7 63.9 50 7.2 45 18.1 0.713
18:39 1017 30.03 846 24.98 17.7 63.9 50 7.1 44.8 18.08 0.712
18:40 1017 30.03 846 24.98 17.8 64 51 7.5 45.5 18.08 0.712
18:41 1017 30.03 846 24.98 17.8 64 49 7.2 44.9 18.09 0.712
18:42 1017 30.03 846 24.98 17.8 64 49 6.9 44.4 18.11 0.713
18:43 1017 30.03 846 24.98 17.7 63.9 49 7.1 44.7 18.11 0.713
18:44 1017 30.03 846 24.98 17.7 63.9 50 7.2 45 18.08 0.712
18:45 1017 30.03 846 24.98 17.7 63.8 49 7 44.6 18.05 0.711
18:46 1017 30.03 846 24.98 17.6 63.7 49 6.9 44.5 17.99 0.708
18:47 1017 30.03 846 24.98 17.5 63.6 50 7.2 45 17.91 0.705
18:48 1017 30.03 846 24.98 17.5 63.5 48 6.4 43.6 17.86 0.703
18:49 1017 30.03 846 24.98 17.5 63.6 48 6.4 43.6 17.9 0.705
18:50 1017 30.03 846 24.98 17.6 63.6 50 7.1 44.7 17.93 0.706
18:51 1017 30.03 846 24.98 17.5 63.6 50 7.1 44.7 17.91 0.705
18:52 1016 30 846 24.98 17.5 63.4 49 6.9 44.3 17.82 0.702
18:53 1016 30 846 24.98 17.4 63.4 50 7 44.6 17.82 0.702
18:54 1016 30 846 24.98 17.4 63.3 50 6.9 44.5 17.78 0.7
18:55 1017 30.03 846 24.98 17.3 63.2 51 7.2 45 17.7 0.697
18:56 1017 30.03 846 24.98 17.3 63.2 50 6.8 44.2 17.68 0.696
18:57 1017 30.03 846 24.98 17.3 63.1 52 7.4 45.3 17.72 0.698
18:58 1017 30.03 846 24.98 17.3 63.1 51 7.1 44.8 17.66 0.695
18:59 1016 30 846 24.98 17.3 63.2 48 6.4 43.5 17.68 0.696
19:00 1017 30.03 846 24.98 17.4 63.2 51 7.3 45.1 17.71 0.697
19:01 1016 30 846 24.98 17.3 63.2 52 7.5 45.6 17.72 0.698
19:02 1016 30 846 24.98 17.3 63.1 52 7.3 45.2 17.65 0.695
19:03 1016 30 846 24.98 17.2 63 50 6.9 44.4 17.61 0.693
19:04 1016 30 846 24.98 17.2 63 52 7.3 45.1 17.55 0.691
19:05 1016 30 846 24.98 17.2 62.9 53 7.6 45.7 17.54 0.691
19:06 1016 30 846 24.98 17.1 62.8 54 7.9 46.1 17.49 0.689
19:07 1016 30 846 24.98 17 62.7 53 7.6 45.6 17.45 0.687
19:08 1016 30 846 24.98 17 62.6 52 7.3 45.1 17.38 0.684
19:09 1016 30 846 24.98 17 62.5 53 7.4 45.3 17.34 0.683
19:10 1016 30 846 24.98 16.9 62.4 52 7.2 45 17.27 0.68
19:11 1016 30 846 24.98 16.9 62.5 53 7.5 45.4 17.31 0.681
19:12 1016 30 846 24.98 16.9 62.4 53 7.5 45.4 17.27 0.68
19:13 1016 30 846 24.98 16.8 62.3 52 7.2 44.9 17.24 0.679
19:14 1016 30 846 24.98 16.8 62.2 51 6.8 44.2 17.21 0.678
19:15 1016 30 846 24.98 16.9 62.3 51 6.9 44.3 17.24 0.679
19:16 1016 30 846 24.98 16.9 62.4 52 7.2 44.9 17.25 0.679
19:17 1016 30 846 24.98 16.8 62.3 51 6.8 44.2 17.19 0.677
19:18 1016 30 846 24.98 16.8 62.2 52 7 44.6 17.18 0.676
19:19 1016 30 846 24.98 16.7 62.1 53 7.2 45 17.11 0.674
19:20 1016 30 846 24.98 16.7 62 54 7.3 45.2 17.05 0.671
19:21 1016 30 846 24.98 16.6 61.8 55 7.6 45.6 16.95 0.667
19:22 1016 30 846 24.98 16.5 61.6 56 7.7 45.8 16.91 0.666
19:23 1016 30 846 24.98 16.3 61.4 56 7.7 45.8 16.78 0.661
19:24 1016 30 846 24.98 16.3 61.3 56 7.6 45.7 16.66 0.656
19:25 1016 30 846 24.98 16.2 61.2 56 7.6 45.7 16.6 0.654
19:26 1016 30 846 24.98 16.2 61.2 55 7.4 45.2 16.56 0.652
19:27 1016 30 846 24.98 16.3 61.3 57 7.7 45.9 16.59 0.653
19:28 1016 30 846 24.98 16.2 61.2 57 7.7 45.9 16.59 0.653
19:29 1016 30 846 24.98 16.2 61.1 56 7.6 45.6 16.56 0.652
19:30 1016 30 846 24.98 16.1 61 57 7.6 45.7 16.48 0.649
19:31 1016 30 846 24.98 16.1 60.9 57 7.6 45.7 16.46 0.648
19:32 1016 30 846 24.98 16 60.8 59 8 46.4 16.43 0.647
19:33 1017 30.03 846 24.98 15.9 60.6 60 8.2 46.8 16.32 0.643
19:34 1017 30.03 846 24.98 15.7 60.3 60 8.2 46.7 16.2 0.638
19:35 1017 30.03 846 24.98 15.7 60.2 62 8.5 47.3 16.07 0.633
19:36 1016 30 846 24.98 15.6 60 62 8.5 47.3 15.94 0.628
19:37 1017 30.03 846 24.98 15.5 59.9 62 8.4 47.1 15.87 0.625
19:38 1017 30.03 846 24.98 15.4 59.8 63 8.5 47.3 15.81 0.622
19:39 1017 30.03 846 24.98 15.4 59.7 62 8.3 46.9 15.79 0.622
19:40 1017 30.03 846 24.98 15.4 59.7 62 8.1 46.6 15.78 0.621
19:41 1017 30.03 846 24.98 15.4 59.8 61 8 46.3 15.79 0.622
19:42 1017 30.03 846 24.98 15.5 59.9 61 8 46.5 15.83 0.623
19:43 1017 30.03 846 24.98 15.6 60 60 8 46.5 15.91 0.626
19:44 1017 30.03 846 24.98 15.7 60.2 61 8.1 46.7 16.01 0.63
19:45 1017 30.03 846 24.98 15.7 60.3 60 8 46.4 16.09 0.633
19:46 1017 30.03 846 24.98 15.8 60.4 61 8.4 47.1 16.17 0.637
19:47 1016 30 846 24.98 15.7 60.2 60 8 46.4 16.14 0.635
19:48 1017 30.03 846 24.98 15.7 60.3 61 8.3 47 16.11 0.634
19:49 1017 30.03 846 24.98 15.7 60.3 60 8 46.4 16.12 0.635
19:50 1017 30.03 846 24.98 15.7 60.2 61 8.3 46.9 16.12 0.635
19:51 1017 30.03 846 24.98 15.7 60.3 61 8.2 46.7 16.08 0.633
19:52 1017 30.03 846 24.98 15.7 60.3 60 8.2 46.7 16.11 0.634
19:53 1017 30.03 846 24.98 15.7 60.3 60 8 46.4 16.08 0.633
19:54 1017 30.03 846 24.98 15.7 60.3 61 8.3 46.9 16.11 0.634
19:55 1017 30.03 846 24.98 15.7 60.3 61 8.3 46.9 16.06 0.632
19:56 1017 30.03 846 24.98 15.7 60.2 61 8.2 46.7 16.08 0.633
19:57 1017 30.03 846 24.98 15.7 60.3 61 8.2 46.8 16.07 0.633
19:58 1017 30.03 846 24.98 15.7 60.2 60 8 46.3 16.05 0.632
19:59 1017 30.03 846 24.98 15.7 60.3 58 7.6 45.6 16.11 0.634
20:00 1017 30.03 846 24.98 15.8 60.4 59 7.8 46.1 16.12 0.635
20:01 1017 30.03 846 24.98 15.8 60.5 59 7.9 46.3 16.19 0.637
20:02 1017 30.03 846 24.98 15.9 60.5 58 7.6 45.7 16.24 0.639
20:03 1017 30.03 846 24.98 15.9 60.6 58 7.8 46 16.24 0.639
20:04 1017 30.03 846 24.98 15.9 60.6 58 7.8 46.1 16.25 0.64
20:05 1017 30.03 846 24.98 15.9 60.6 57 7.4 45.4 16.28 0.641
20:06 1017 30.03 846 24.98 15.9 60.7 57 7.5 45.6 16.31 0.642
20:07 1017 30.03 846 24.98 16 60.9 57 7.5 45.5 16.38 0.645
20:08 1017 30.03 846 24.98 16.1 60.9 54 7 44.5 16.42 0.646
20:09 1017 30.03 846 24.98 16.2 61.2 54 7 44.7 16.52 0.65
20:10 1017 30.03 846 24.98 16.3 61.4 55 7.4 45.3 16.68 0.657
20:11 1017 30.03 846 24.98 16.4 61.5 53 6.8 44.2 16.76 0.66
20:12 1017 30.03 846 24.98 16.5 61.7 53 7 44.6 16.84 0.663
20:13 1017 30.03 846 24.98 16.6 61.9 54 7.3 45.1 16.94 0.667
20:14 1017 30.03 846 24.98 16.6 61.8 52 6.9 44.5 16.99 0.669
20:15 1017 30.03 846 24.98 16.6 61.9 53 7.2 44.9 17.04 0.671
20:16 1017 30.03 846 24.98 16.7 62 53 7.2 44.9 17.07 0.672
20:17 1017 30.03 846 24.98 16.7 62.1 54 7.4 45.3 17.06 0.672
20:18 1017 30.03 846 24.98 16.7 62 54 7.5 45.4 17.05 0.671
20:19 1017 30.03 846 24.98 16.6 61.8 53 7.1 44.8 16.99 0.669
20:20 1017 30.03 846 24.98 16.6 61.8 55 7.5 45.5 16.93 0.667
20:21 1017 30.03 846 24.98 16.5 61.8 55 7.4 45.4 16.91 0.666
20:22 1017 30.03 846 24.98 16.4 61.6 55 7.4 45.4 16.87 0.664
20:23 1017 30.03 846 24.98 16.4 61.5 55 7.5 45.5 16.79 0.661
20:24 1017 30.03 846 24.98 16.4 61.4 56 7.7 45.9 16.78 0.661
20:25 1017 30.03 846 24.98 16.4 61.4 57 7.9 46.3 16.75 0.659
20:26 1017 30.03 846 24.98 16.3 61.3 58 8.1 46.6 16.63 0.655
20:27 1017 30.03 846 24.98 16.2 61.2 58 8.1 46.6 16.52 0.65
20:28 1017 30.03 846 24.98 16.1 61 57 7.6 45.6 16.46 0.648
20:29 1017 30.03 846 24.98 16.1 61 55 7.1 44.7 16.45 0.648
20:30 1017 30.03 846 24.98 16.1 61 56 7.4 45.4 16.53 0.651
20:31 1017 30.03 846 24.98 16.2 61.1 57 7.7 45.8 16.59 0.653
20:32 1017 30.03 846 24.98 16.2 61.1 56 7.4 45.4 16.63 0.655
20:33 1017 30.03 846 24.98 16.2 61.2 55 7.4 45.3 16.62 0.654
20:34 1017 30.03 846 24.98 16.2 61.2 54 7.1 44.7 16.57 0.652
20:35 1017 30.03 846 24.98 16.2 61.1 54 7 44.6 16.56 0.652
20:36 1017 30.03 846 24.98 16.2 61.2 56 7.4 45.3 16.58 0.653
20:37 1017 30.03 846 24.98 16.2 61.2 56 7.4 45.4 16.57 0.652
20:38 1017 30.03 846 24.98 16.2 61.1 57 7.7 45.8 16.56 0.652
20:39 1017 30.03 846 24.98 16.2 61.1 57 7.7 45.9 16.53 0.651
20:40 1017 30.03 846 24.98 16.1 61.1 58 7.9 46.2 16.52 0.65
20:41 1017 30.03 846 24.98 16.1 60.9 58 8 46.4 16.5 0.65
20:42 1017 30.03 846 24.98 16 60.9 60 8.3 46.9 16.42 0.646
20:43 1017 30.03 846 24.98 15.9 60.7 60 8.3 46.9 16.35 0.644
20:44 1017 30.03 846 24.98 15.8 60.4 60 8.2 46.7 16.25 0.64
20:45 1017 30.03 846 24.98 15.7 60.3 60 8 46.5 16.14 0.635
20:46 1017 30.03 846 24.98 15.7 60.2 60 8 46.4 16.04 0.631
20:47 1017 30.03 846 24.98 15.7 60.2 59 7.9 46.1 16.02 0.631
20:48 1017 30.03 846 24.98 15.7 60.2 58 7.4 45.4 16.03 0.631
20:49 1017 30.03 846 24.98 15.8 60.4 59 7.9 46.2 16.09 0.633
20:50 1017 30.03 846 24.98 15.8 60.4 56 7.1 44.8 16.16 0.636
20:51 1017 30.03 846 24.98 16 60.8 53 6.5 43.7 16.29 0.641
20:52 1017 30.03 846 24.98 16.3 61.3 54 6.9 44.5 16.59 0.653
20:53 1017 30.03 846 24.98 16.4 61.5 53 6.8 44.3 16.69 0.657
20:54 1017 30.03 846 24.98 16.4 61.6 53 6.8 44.3 16.77 0.66
20:55 1017 30.03 846 24.98 16.5 61.6 53 6.9 44.5 16.78 0.661
20:56 1017 30.03 846 24.98 16.5 61.6 54 7.1 44.9 16.81 0.662
20:57 1017 30.03 846 24.98 16.4 61.6 53 7 44.7 16.8 0.661
20:58 1017 30.03 846 24.98 16.4 61.6 53 6.8 44.2 16.77 0.66
20:59 1017 30.03 846 24.98 16.5 61.6 52 6.6 43.8 16.81 0.662
21:00 1017 30.03 846 24.98 16.5 61.8 54 7.2 44.9 16.88 0.665
21:01 1017 30.03 846 24.98 16.5 61.7 53 7 44.6 16.85 0.663
21:02 1017 30.03 846 24.98 16.4 61.6 52 6.6 43.9 16.8 0.661
21:03 1017 30.03 846 24.98 16.5 61.7 51 6.3 43.3 16.81 0.662
21:04 1017 30.03 846 24.98 16.6 61.8 52 6.7 44 16.94 0.667
21:05 1017 30.03 846 24.98 16.5 61.7 51 6.5 43.7 16.86 0.664
21:06 1017 30.03 846 24.98 16.5 61.8 52 6.8 44.2 16.87 0.664
21:07 1017 30.03 846 24.98 16.5 61.6 53 7 44.6 16.86 0.664
21:08 1017 30.03 846 24.98 16.4 61.5 52 6.7 44.1 16.75 0.659
21:09 1017 30.03 846 24.98 16.4 61.4 52 6.7 44 16.71 0.658
21:10 1017 30.03 846 24.98 16.3 61.4 53 6.8 44.3 16.69 0.657
21:11 1017 30.03 846 24.98 16.3 61.3 53 6.7 44.1 16.64 0.655
21:12 1017 30.03 846 24.98 16.3 61.3 52 6.5 43.7 16.63 0.655
21:13 1017 30.03 846 24.98 16.3 61.3 54 6.9 44.5 16.63 0.655
21:14 1017 30.03 846 24.98 16.3 61.3 53 6.7 44 16.63 0.655
21:15 1017 30.03 846 24.98 16.3 61.3 52 6.6 44 16.66 0.656
21:16 1017 30.03 846 24.98 16.4 61.4 49 5.8 42.4 16.71 0.658
21:17 1017 30.03 846 24.98 16.5 61.8 50 6.3 43.3 16.86 0.664
21:18 1017 30.03 846 24.98 16.6 61.8 52 6.7 44.1 16.92 0.666
21:19 1017 30.03 846 24.98 16.5 61.7 53 7 44.5 16.86 0.664
21:20 1017 30.03 846 24.98 16.4 61.4 53 6.8 44.2 16.73 0.659
21:21 1017 30.03 846 24.98 16.3 61.3 52 6.5 43.8 16.68 0.657
21:22 1017 30.03 846 24.98 16.3 61.4 53 6.9 44.4 16.65 0.656
21:23 1017 30.03 846 24.98 16.2 61.2 53 6.8 44.3 16.6 0.654
21:24 1017 30.03 846 24.98 16.2 61.1 54 6.9 44.3 16.57 0.652
21:25 1017 30.03 846 24.98 16.2 61.2 53 6.7 44.1 16.56 0.652
21:26 1017 30.03 847 25.01 16.2 61.1 53 6.6 43.9 16.56 0.652
21:27 1017 30.03 847 25.01 16.2 61.1 52 6.5 43.7 16.51 0.65
21:28 1017 30.03 847 25.01 16.2 61.2 53 6.7 44.1 16.58 0.653
21:29 1017 30.03 847 25.01 16.2 61.1 54 7 44.5 16.59 0.653
21:30 1017 30.03 847 25.01 16.2 61.1 54 6.9 44.4 16.53 0.651
21:31 1017 30.03 847 25.01 16.1 60.9 56 7.3 45.2 16.49 0.649
21:32 1017 30.03 847 25.01 15.9 60.7 56 7.4 45.3 16.38 0.645
21:33 1017 30.03 847 25.01 15.8 60.5 56 7.2 44.9 16.26 0.64
21:34 1017 30.03 847 25.01 15.8 60.4 54 6.7 44 16.16 0.636
21:35 1017 30.03 847 25.01 15.8 60.4 55 6.8 44.2 16.19 0.637
21:36 1017 30.03 847 25.01 15.8 60.4 56 7.2 44.9 16.19 0.637
21:37 1017 30.03 847 25.01 15.7 60.3 55 6.9 44.4 16.12 0.635
21:38 1018 30.06 847 25.01 15.7 60.3 56 7.1 44.8 16.09 0.633
21:39 1017 30.03 847 25.01 15.6 60.1 58 7.4 45.3 16.02 0.631
21:40 1018 30.06 847 25.01 15.5 60 58 7.3 45.1 15.94 0.628
21:41 1018 30.06 847 25.01 15.4 59.8 59 7.5 45.4 15.82 0.623
21:42 1018 30.06 847 25.01 15.4 59.7 59 7.4 45.4 15.72 0.619
21:43 1018 30.06 847 25.01 15.3 59.6 59 7.5 45.4 15.75 0.62
21:44 1018 30.06 847 25.01 15.3 59.5 60 7.7 45.9 15.65 0.616
21:45 1018 30.06 847 25.01 15.2 59.3 61 7.9 46.1 15.58 0.613
21:46 1018 30.06 847 25.01 15.1 59.1 63 8.1 46.6 15.53 0.611
21:47 1018 30.06 847 25.01 15 58.9 62 7.7 45.9 15.39 0.606
21:48 1018 30.06 847 25.01 15 59 61 7.6 45.6 15.4 0.606
21:49 1018 30.06 847 25.01 15 59.1 62 8 46.4 15.41 0.607
21:50 1018 30.06 847 25.01 15 59 62 7.9 46.2 15.37 0.605
21:51 1018 30.06 847 25.01 15 59 61 7.6 45.7 15.38 0.606
21:52 1018 30.06 847 25.01 15.1 59.1 61 7.6 45.6 15.41 0.607
21:53 1018 30.06 847 25.01 15.1 59.1 60 7.4 45.4 15.42 0.607
21:54 1018 30.06 847 25.01 15.1 59.2 59 7.3 45.2 15.48 0.609
21:55 1018 30.06 847 25.01 15.1 59.2 59 7.1 44.8 15.5 0.61
21:56 1018 30.06 847 25.01 15.2 59.4 58 7.2 45 15.59 0.614
21:57 1018 30.06 847 25.01 15.2 59.4 58 7.2 44.9 15.62 0.615
21:58 1018 30.06 847 25.01 15.3 59.5 59 7.4 45.3 15.62 0.615
21:59 1018 30.06 847 25.01 15.3 59.5 59 7.5 45.4 15.64 0.616
22:00 1018 30.06 847 25.01 15.2 59.3 60 7.5 45.6 15.59 0.614
22:01 1018 30.06 847 25.01 15 59.1 60 7.3 45.1 15.43 0.607
22:02 1018 30.06 847 25.01 15 59 60 7.4 45.3 15.35 0.604
22:03 1018 30.06 847 25.01 14.9 58.8 62 7.7 45.9 15.26 0.601
22:04 1018 30.06 847 25.01 14.7 58.4 61 7.3 45.2 15.1 0.594
22:05 1018 30.06 847 25.01 14.7 58.4 61 7.4 45.3 15.09 0.594
22:06 1018 30.06 847 25.01 14.7 58.4 61 7.4 45.4 15.06 0.593
22:07 1018 30.06 847 25.01 14.6 58.3 62 7.5 45.5 14.99 0.59
22:08 1018 30.06 847 25.01 14.5 58.2 62 7.4 45.4 14.89 0.586
22:09 1018 30.06 847 25.01 14.6 58.2 59 6.7 44.1 14.92 0.587
22:10 1018 30.06 847 25.01 14.8 58.6 59 6.8 44.3 15.15 0.596
22:11 1018 30.06 847 25.01 14.9 58.7 61 7.5 45.6 15.22 0.599
22:12 1018 30.06 847 25.01 14.6 58.3 64 7.9 46.3 15.08 0.594
22:13 1018 30.06 847 25.01 14.3 57.7 66 8 46.3 14.71 0.579
22:14 1018 30.06 847 25.01 14 57.1 67 7.9 46.3 14.39 0.567
22:15 1018 30.06 847 25.01 13.7 56.7 67 7.7 45.8 14.18 0.558
22:16 1018 30.06 847 25.01 13.6 56.5 66 7.4 45.3 14.08 0.554
22:17 1018 30.06 847 25.01 13.9 57 63 7 44.7 14.24 0.561
22:18 1018 30.06 847 25.01 14.3 57.7 63 7.4 45.4 14.63 0.576
22:19 1018 30.06 847 25.01 14.5 58 61 7 44.6 14.79 0.582
22:20 1018 30.06 847 25.01 14.6 58.3 61 7.3 45.1 14.97 0.589
22:21 1018 30.06 847 25.01 14.7 58.5 60 7.2 45 15.11 0.595
22:22 1018 30.06 847 25.01 14.8 58.7 61 7.4 45.4 15.22 0.599
22:23 1018 30.06 847 25.01 14.8 58.7 62 7.7 45.9 15.23 0.6
22:24 1018 30.06 847 25.01 14.7 58.4 63 7.7 45.8 15.06 0.593
22:25 1018 30.06 847 25.01 14.6 58.2 63 7.7 45.9 14.98 0.59
22:26 1018 30.06 847 25.01 14.5 58 64 7.8 46 14.84 0.584
22:27 1018 30.06 847 25.01 14.4 57.8 65 7.9 46.3 14.76 0.581
22:28 1018 30.06 847 25.01 14.2 57.6 65 7.9 46.2 14.62 0.576
22:29 1018 30.06 847 25.01 14.1 57.3 66 8 46.3 14.47 0.57
22:30 1018 30.06 847 25.01 13.9 57 67 8 46.4 14.34 0.565
22:31 1018 30.06 847 25.01 13.8 56.8 68 8 46.4 14.19 0.559
22:32 1018 30.06 847 25.01 13.7 56.6 69 8 46.5 14.11 0.556
22:33 1018 30.06 847 25.01 13.5 56.3 69 8 46.4 13.94 0.549
22:34 1018 30.06 847 25.01 13.4 56.1 70 8 46.4 13.77 0.542
22:35 1018 30.06 847 25.01 13.3 55.9 70 8 46.4 13.67 0.538
22:36 1018 30.06 847 25.01 13.1 55.6 71 8 46.4 13.52 0.532
22:37 1018 30.06 847 25.01 13 55.3 72 8 46.4 13.37 0.526
22:38 1018 30.06 847 25.01 12.8 55 73 8.1 46.6 13.25 0.522
22:39 1018 30.06 847 25.01 12.5 54.5 74 8 46.5 12.97 0.511
22:40 1018 30.06 847 25.01 12.4 54.2 74 7.9 46.1 12.82 0.505
22:41 1018 30.06 847 25.01 12.3 54.1 74 7.9 46.2 12.69 0.5
22:42 1018 30.06 847 25.01 12.3 54.1 75 7.9 46.2 12.64 0.498
22:43 1018 30.06 847 25.01 12.1 53.8 75 7.8 46.1 12.54 0.494
22:44 1018 30.06 847 25.01 12.2 53.9 74 7.8 46 12.54 0.494
22:45 1018 30.06 847 25.01 12.2 54 74 7.7 45.9 12.59 0.496
22:46 1018 30.06 847 25.01 12.2 54 74 7.7 45.9 12.62 0.497
22:47 1018 30.06 847 25.01 12.3 54.1 73 7.7 45.8 12.63 0.497
22:48 1018 30.06 847 25.01 12.3 54.1 74 7.8 46 12.66 0.498
22:49 1018 30.06 847 25.01 12.2 54 74 7.7 45.9 12.56 0.494
22:50 1018 30.06 847 25.01 12.2 54 73 7.5 45.5 12.56 0.494
22:51 1018 30.06 847 25.01 12.4 54.4 70 7.1 44.8 12.72 0.501
22:52 1018 30.06 847 25.01 12.9 55.3 68 7.2 45 13.15 0.518
22:53 1018 30.06 847 25.01 13.1 55.7 67 7.3 45.1 13.46 0.53
22:54 1018 30.06 847 25.01 13.4 56 65 6.9 44.4 13.61 0.536
22:55 1018 30.06 847 25.01 13.8 56.8 63 6.9 44.3 13.97 0.55
22:56 1018 30.06 847 25.01 14 57.2 62 6.9 44.4 14.26 0.561
22:57 1018 30.06 847 25.01 14.1 57.5 62 7.1 44.7 14.46 0.569
22:58 1018 30.06 847 25.01 14.3 57.7 62 7.2 44.9 14.58 0.574
22:59 1018 30.06 847 25.01 14.2 57.5 64 7.5 45.5 14.58 0.574
23:00 1018 30.06 847 25.01 13.9 57 65 7.4 45.4 14.36 0.565
23:01 1018 30.06 847 25.01 13.7 56.7 65 7.4 45.3 14.13 0.556
23:02 1018 30.06 847 25.01 13.6 56.4 66 7.3 45.2 14.01 0.552
23:03 1018 30.06 847 25.01 13.5 56.4 65 7.2 44.9 13.9 0.547
23:04 1018 30.06 847 25.01 13.6 56.4 66 7.4 45.3 13.9 0.547
23:05 1018 30.06 847 25.01 13.4 56.2 66 7.3 45.2 13.85 0.545
23:06 1018 30.06 847 25.01 13.4 56 67 7.4 45.4 13.73 0.541
23:07 1018 30.06 847 25.01 13.2 55.7 67 7.3 45.2 13.64 0.537
23:08 1018 30.06 847 25.01 13.2 55.7 67 7.3 45.1 13.54 0.533
23:09 1018 30.06 847 25.01 13.2 55.7 67 7.3 45.1 13.54 0.533
23:10 1018 30.06 847 25.01 13.2 55.7 67 7.3 45.1 13.52 0.532
23:11 1018 30.06 847 25.01 13 55.5 68 7.3 45.2 13.42 0.528
23:12 1018 30.06 847 25.01 12.8 55 69 7.4 45.2 13.23 0.521
23:13 1018 30.06 847 25.01 12.6 54.6 70 7.3 45.1 13.01 0.512
23:14 1018 30.06 847 25.01 12.4 54.4 70 7.2 44.9 12.84 0.506
23:15 1018 30.06 847 25.01 12.5 54.5 69 6.9 44.4 12.82 0.505
23:16 1018 30.06 847 25.01 12.7 54.8 68 7 44.6 12.98 0.511
23:17 1018 30.06 847 25.01 12.7 54.8 68 6.9 44.5 13.06 0.514
23:18 1018 30.06 847 25.01 12.8 55 67 6.9 44.3 13.11 0.516
23:19 1018 30.06 847 25.01 12.9 55.3 67 7.1 44.7 13.25 0.522
23:20 1018 30.06 847 25.01 12.9 55.3 68 7.2 45 13.26 0.522
23:21 1018 30.06 847 25.01 12.8 55 69 7.3 45.1 13.19 0.519
23:22 1018 30.06 847 25.01 12.5 54.4 70 7.3 45.1 12.97 0.511
23:23 1018 30.06 847 25.01 12.2 54 72 7.3 45.1 12.64 0.498
23:24 1018 30.06 847 25.01 12.1 53.8 72 7.2 45 12.5 0.492
23:25 1018 30.06 847 25.01 12.1 53.7 72 7.2 45 12.46 0.491
23:26 1018 30.06 847 25.01 12 53.5 73 7.3 45.1 12.36 0.487
23:27 1018 30.06 847 25.01 11.8 53.3 74 7.3 45.1 12.25 0.482
23:28 1018 30.06 847 25.01 11.7 53.1 74 7.3 45.1 12.06 0.475
23:29 1018 30.06 847 25.01 11.7 53 74 7.2 45 12.07 0.475
23:30 1018 30.06 847 25.01 11.6 52.9 74 7.1 44.7 11.97 0.471
23:31 1018 30.06 847 25.01 11.6 53 74 7.2 45 11.95 0.47
23:32 1018 30.06 847 25.01 11.5 52.7 74 7 44.7 11.88 0.468
23:33 1018 30.06 847 25.01 11.7 53 71 6.6 43.9 11.93 0.47
23:34 1018 30.06 847 25.01 12.1 53.8 70 6.9 44.4 12.33 0.485
23:35 1018 30.06 847 25.01 12.3 54.2 69 6.9 44.4 12.6 0.496
23:36 1018 30.06 847 25.01 12.4 54.3 67 6.6 43.8 12.73 0.501
23:37 1018 30.06 847 25.01 12.5 54.5 69 7 44.5 12.76 0.502
23:38 1018 30.06 847 25.01 12.5 54.4 69 6.9 44.4 12.81 0.504
23:39 1018 30.06 847 25.01 12.4 54.2 68 6.7 44.1 12.72 0.501
23:40 1018 30.06 847 25.01 12.5 54.5 67 6.7 44 12.79 0.504
23:41 1018 30.06 847 25.01 12.7 54.9 67 6.7 44 12.96 0.51
23:42 1018 30.06 847 25.01 12.7 54.9 67 6.8 44.3 13.04 0.513
23:43 1018 30.06 847 25.01 12.5 54.6 68 6.8 44.2 12.96 0.51
23:44 1018 30.06 847 25.01 12.5 54.4 68 6.8 44.3 12.84 0.506
23:45 1018 30.06 847 25.01 12.4 54.3 67 6.4 43.5 12.74 0.502
23:46 1018 30.06 847 25.01 12.7 54.8 65 6.4 43.5 12.94 0.509
23:47 1018 30.06 847 25.01 12.9 55.2 65 6.6 43.8 13.18 0.519
23:48 1018 30.06 847 25.01 12.9 55.2 66 6.7 44.1 13.3 0.524
23:49 1018 30.06 847 25.01 12.8 55 67 6.8 44.2 13.17 0.519
23:50 1018 30.06 847 25.01 12.6 54.6 68 6.8 44.3 12.97 0.511
23:51 1018 30.06 847 25.01 12.5 54.5 67 6.6 44 12.86 0.506
23:52 1018 30.06 847 25.01 12.4 54.4 67 6.6 43.9 12.78 0.503
23:53 1018 30.06 847 25.01 12.4 54.4 67 6.5 43.7 12.75 0.502
23:54 1018 30.06 847 25.01 12.4 54.3 67 6.5 43.7 12.75 0.502
23:55 1018 30.06 847 25.01 12.3 54.2 68 6.6 43.8 12.72 0.501
23:56 1018 30.06 847 25.01 12.3 54.1 67 6.4 43.4 12.63 0.497
23:57 1018 30.06 847 25.01 12.5 54.4 66 6.3 43.4 12.76 0.502
23:58 1018 30.06 847 25.01 12.6 54.7 66 6.4 43.6 12.89 0.507
23:59 1018 30.06 847 25.01 12.7 54.8 66 6.5 43.7 13 0.512
24:00 1018 30.06 847 25.01 12.6 54.8 65 6.3 43.3 13.02 0.513